Time,TemperatureF,DewpointF,PressureIn,WindDirection,WindDirectionDegrees,WindSpeedMPH,WindSpeedGustMPH,Humidity,HourlyPrecipIn,Conditions,Clouds,dailyrainin,SoftwareType,DateUTC
2013-09-30 00:01:00,49.6,47.4,29.57,WSW,254,12.0,24.0,92,0.30,,---,1.29,VWS V14.01,2013-09-30 07:01:00,
2013-09-30 00:02:00,49.6,47.4,29.57,SW,232,8.0,24.0,92,0.30,,---,0.00,VWS V14.01,2013-09-30 07:02:00,
2013-09-30 00:03:00,49.7,47.5,29.57,SW,226,19.0,20.0,92,0.26,,---,0.00,VWS V14.01,2013-09-30 07:03:00,
2013-09-30 00:04:00,49.7,47.2,29.57,West,263,22.0,27.0,91,0.27,,---,0.01,VWS V14.01,2013-09-30 07:04:00,
2013-09-30 00:05:00,49.8,47.3,29.57,WSW,251,12.0,27.0,91,0.27,,---,0.01,VWS V14.01,2013-09-30 07:05:00,
2013-09-30 00:07:00,49.7,47.2,29.57,West,268,16.0,27.0,91,0.27,,---,0.01,VWS V14.01,2013-09-30 07:07:00,
2013-09-30 00:08:00,49.8,46.7,29.57,SW,219,13.0,27.0,89,0.27,,---,0.01,VWS V14.01,2013-09-30 07:08:00,
2013-09-30 00:10:00,49.7,46.9,29.57,SW,220,11.0,27.0,90,0.27,,---,0.01,VWS V14.01,2013-09-30 07:10:00,
2013-09-30 00:13:00,49.7,47.5,29.58,SW,231,7.0,11.0,92,0.23,,---,0.01,VWS V14.01,2013-09-30 07:13:00,
2013-09-30 00:16:00,49.6,47.4,29.58,SW,231,8.0,12.0,92,0.23,,---,0.01,VWS V14.01,2013-09-30 07:16:00,
2013-09-30 00:17:00,49.5,47.3,29.58,SW,223,9.0,12.0,92,0.23,,---,0.01,VWS V14.01,2013-09-30 07:17:00,
2013-09-30 00:18:00,49.5,47.3,29.59,SW,234,5.0,12.0,92,0.23,,---,0.01,VWS V14.01,2013-09-30 07:18:00,
2013-09-30 00:21:00,49.4,47.2,29.60,West,268,7.0,12.0,92,0.23,,---,0.01,VWS V14.01,2013-09-30 07:21:00,
2013-09-30 00:22:00,49.4,47.2,29.60,WNW,285,6.0,6.0,92,0.20,,---,0.01,VWS V14.01,2013-09-30 07:22:00,
2013-09-30 00:23:00,49.3,47.1,29.60,West,279,4.0,10.0,92,0.20,,---,0.01,VWS V14.01,2013-09-30 07:23:00,
2013-09-30 00:24:00,49.2,47.3,29.60,NW,318,4.0,10.0,93,0.20,,---,0.01,VWS V14.01,2013-09-30 07:24:00,
2013-09-30 00:27:00,49.1,47.2,29.61,NW,321,5.0,10.0,93,0.20,,---,0.01,VWS V14.01,2013-09-30 07:27:00,
2013-09-30 00:28:00,49.0,47.1,29.61,WNW,287,4.0,10.0,93,0.20,,---,0.01,VWS V14.01,2013-09-30 07:28:00,
2013-09-30 00:29:00,48.9,46.7,29.61,WSW,255,8.0,10.0,92,0.20,,---,0.01,VWS V14.01,2013-09-30 07:29:00,
2013-09-30 00:30:00,48.9,46.7,29.62,WNW,298,5.0,10.0,92,0.21,,---,0.02,VWS V14.01,2013-09-30 07:30:00,
2013-09-30 00:32:00,48.8,46.6,29.62,West,266,11.0,13.0,92,0.18,,---,0.02,VWS V14.01,2013-09-30 07:32:00,
2013-09-30 00:33:00,48.8,46.6,29.62,WNW,290,10.0,13.0,92,0.18,,---,0.02,VWS V14.01,2013-09-30 07:33:00,
2013-09-30 00:34:00,48.8,46.3,29.62,WNW,295,7.0,13.0,91,0.18,,---,0.02,VWS V14.01,2013-09-30 07:34:00,
2013-09-30 00:36:00,48.8,46.3,29.62,WNW,286,3.0,13.0,91,0.18,,---,0.02,VWS V14.01,2013-09-30 07:36:00,
2013-09-30 00:37:00,48.8,46.3,29.61,West,275,7.0,13.0,91,0.18,,---,0.02,VWS V14.01,2013-09-30 07:37:00,
2013-09-30 00:38:00,48.8,46.3,29.62,West,265,4.0,13.0,91,0.18,,---,0.02,VWS V14.01,2013-09-30 07:38:00,
2013-09-30 00:39:00,48.8,46.6,29.62,SW,227,5.0,13.0,92,0.18,,---,0.02,VWS V14.01,2013-09-30 07:39:00,
2013-09-30 00:41:00,48.7,46.5,29.63,SW,215,3.0,13.0,92,0.19,,---,0.03,VWS V14.01,2013-09-30 07:41:00,
2013-09-30 00:44:00,48.6,46.1,29.63,WSW,237,6.0,8.0,91,0.14,,---,0.03,VWS V14.01,2013-09-30 07:44:00,
2013-09-30 00:46:00,48.5,46.0,29.64,West,269,12.0,14.0,91,0.14,,---,0.03,VWS V14.01,2013-09-30 07:46:00,
2013-09-30 00:47:00,48.6,44.6,29.64,West,278,8.0,17.0,86,0.14,,---,0.03,VWS V14.01,2013-09-30 07:47:00,
2013-09-30 00:49:00,48.6,44.6,29.65,WNW,300,12.0,17.0,86,0.14,,---,0.03,VWS V14.01,2013-09-30 07:49:00,
2013-09-30 00:52:00,48.4,44.7,29.65,West,261,14.0,17.0,87,0.14,,---,0.03,VWS V14.01,2013-09-30 07:52:00,
2013-09-30 00:53:00,48.1,44.1,29.65,WSW,246,5.0,17.0,86,0.11,,---,0.03,VWS V14.01,2013-09-30 07:53:00,
2013-09-30 00:54:00,47.8,43.8,29.65,West,278,9.0,17.0,86,0.11,,---,0.03,VWS V14.01,2013-09-30 07:54:00,
2013-09-30 00:58:00,47.0,42.7,29.65,NW,310,8.0,18.0,85,0.12,,---,0.04,VWS V14.01,2013-09-30 07:58:00,
2013-09-30 01:00:00,46.5,42.8,29.66,West,265,8.0,18.0,87,0.12,,---,0.04,VWS V14.01,2013-09-30 08:00:00,
2013-09-30 01:01:00,46.3,42.7,29.66,WSW,254,12.0,18.0,87,0.13,,---,0.05,VWS V14.01,2013-09-30 08:01:00,
2013-09-30 01:04:00,45.9,42.3,29.65,WSW,240,9.0,23.0,87,0.05,,---,0.05,VWS V14.01,2013-09-30 08:04:00,
2013-09-30 01:06:00,45.8,41.9,29.64,West,280,8.0,23.0,86,0.05,,---,0.05,VWS V14.01,2013-09-30 08:06:00,
2013-09-30 01:07:00,45.7,42.1,29.64,WSW,239,16.0,28.0,87,0.05,,---,0.05,VWS V14.01,2013-09-30 08:07:00,
2013-09-30 01:09:00,45.7,42.4,29.65,WSW,252,10.0,28.0,88,0.05,,---,0.05,VWS V14.01,2013-09-30 08:09:00,
2013-09-30 01:10:00,45.6,42.0,29.65,WNW,282,9.0,28.0,87,0.06,,---,0.06,VWS V14.01,2013-09-30 08:10:00,
2013-09-30 01:12:00,45.5,41.9,29.65,SW,225,5.0,28.0,87,0.06,,---,0.06,VWS V14.01,2013-09-30 08:12:00,
2013-09-30 01:13:00,45.4,42.1,29.66,WSW,241,9.0,11.0,88,0.06,,---,0.07,VWS V14.01,2013-09-30 08:13:00,
2013-09-30 01:15:00,45.2,41.9,29.67,WSW,255,5.0,11.0,88,0.06,,---,0.07,VWS V14.01,2013-09-30 08:15:00,
2013-09-30 01:17:00,45.0,41.4,29.66,WSW,239,9.0,15.0,87,0.06,,---,0.07,VWS V14.01,2013-09-30 08:17:00,
2013-09-30 01:18:00,45.0,41.7,29.67,WSW,252,8.0,15.0,88,0.06,,---,0.07,VWS V14.01,2013-09-30 08:18:00,
2013-09-30 01:20:00,45.0,41.7,29.67,West,260,8.0,15.0,88,0.06,,---,0.07,VWS V14.01,2013-09-30 08:20:00,
2013-09-30 01:22:00,45.0,41.4,29.66,West,262,6.0,6.0,87,0.06,,---,0.07,VWS V14.01,2013-09-30 08:22:00,
2013-09-30 01:23:00,44.9,41.6,29.66,West,271,8.0,8.0,88,0.06,,---,0.07,VWS V14.01,2013-09-30 08:23:00,
2013-09-30 01:25:00,44.9,40.7,29.67,WSW,238,6.0,16.0,85,0.06,,---,0.07,VWS V14.01,2013-09-30 08:25:00,
2013-09-30 01:28:00,44.9,41.3,29.68,WSW,240,9.0,16.0,87,0.06,,---,0.07,VWS V14.01,2013-09-30 08:28:00,
2013-09-30 01:29:00,44.8,41.2,29.68,SW,225,6.0,16.0,87,0.06,,---,0.07,VWS V14.01,2013-09-30 08:29:00,
2013-09-30 01:31:00,44.7,41.4,29.69,SSW,212,5.0,16.0,88,0.06,,---,0.07,VWS V14.01,2013-09-30 08:31:00,
2013-09-30 01:32:00,44.6,41.6,29.69,SW,232,4.0,8.0,89,0.05,,---,0.07,VWS V14.01,2013-09-30 08:32:00,
2013-09-30 01:34:00,44.5,41.5,29.69,SW,232,3.0,8.0,89,0.05,,---,0.07,VWS V14.01,2013-09-30 08:34:00,
2013-09-30 01:35:00,44.4,41.4,29.69,SW,229,4.0,8.0,89,0.05,,---,0.07,VWS V14.01,2013-09-30 08:35:00,
2013-09-30 01:36:00,44.3,41.3,29.69,SW,231,2.0,8.0,89,0.05,,---,0.07,VWS V14.01,2013-09-30 08:36:00,
2013-09-30 01:38:00,44.3,41.3,29.68,SW,231,2.0,8.0,89,0.05,,---,0.07,VWS V14.01,2013-09-30 08:38:00,
2013-09-30 01:39:00,44.2,41.2,29.69,WNW,284,3.0,8.0,89,0.05,,---,0.07,VWS V14.01,2013-09-30 08:39:00,
2013-09-30 01:40:00,44.2,41.2,29.69,West,279,3.0,8.0,89,0.05,,---,0.07,VWS V14.01,2013-09-30 08:40:00,
2013-09-30 01:41:00,44.2,41.2,29.69,West,260,3.0,8.0,89,0.05,,---,0.07,VWS V14.01,2013-09-30 08:41:00,
2013-09-30 01:44:00,44.1,41.1,29.70,NW,309,4.0,7.0,89,0.04,,---,0.07,VWS V14.01,2013-09-30 08:44:00,
2013-09-30 01:46:00,44.1,41.1,29.70,West,269,7.0,9.0,89,0.04,,---,0.07,VWS V14.01,2013-09-30 08:46:00,
2013-09-30 01:47:00,44.1,40.8,29.70,West,272,4.0,9.0,88,0.04,,---,0.07,VWS V14.01,2013-09-30 08:47:00,
2013-09-30 01:48:00,44.1,40.8,29.70,NW,312,2.0,9.0,88,0.04,,---,0.07,VWS V14.01,2013-09-30 08:48:00,
2013-09-30 01:52:00,44.0,41.0,29.70,West,281,6.0,6.0,89,0.04,,---,0.07,VWS V14.01,2013-09-30 08:52:00,
2013-09-30 01:53:00,44.1,40.5,29.71,SW,220,4.0,9.0,87,0.04,,---,0.07,VWS V14.01,2013-09-30 08:53:00,
2013-09-30 01:54:00,44.0,40.4,29.72,WNW,292,9.0,13.0,87,0.04,,---,0.07,VWS V14.01,2013-09-30 08:54:00,
2013-09-30 01:56:00,44.1,40.2,29.72,WNW,284,6.0,21.0,86,0.04,,---,0.07,VWS V14.01,2013-09-30 08:56:00,
2013-09-30 01:57:00,44.1,40.2,29.71,North,355,9.0,21.0,86,0.04,,---,0.07,VWS V14.01,2013-09-30 08:57:00,
2013-09-30 01:59:00,43.9,39.7,29.72,NW,304,13.0,22.0,85,0.04,,---,0.07,VWS V14.01,2013-09-30 08:59:00,
2013-09-30 02:00:00,43.8,39.6,29.72,WNW,287,16.0,22.0,85,0.04,,---,0.07,VWS V14.01,2013-09-30 09:00:00,
2013-09-30 02:03:00,43.3,39.1,29.73,West,260,14.0,18.0,85,0.02,,---,0.07,VWS V14.01,2013-09-30 09:03:00,
2013-09-30 02:04:00,43.2,38.4,29.73,West,277,18.0,27.0,83,0.02,,---,0.07,VWS V14.01,2013-09-30 09:04:00,
2013-09-30 02:05:00,43.0,37.9,29.73,WNW,301,9.0,27.0,82,0.02,,---,0.07,VWS V14.01,2013-09-30 09:05:00,
2013-09-30 02:06:00,42.8,37.7,29.73,West,267,18.0,27.0,82,0.02,,---,0.07,VWS V14.01,2013-09-30 09:06:00,
2013-09-30 02:07:00,42.6,37.2,29.73,West,281,25.0,27.0,81,0.02,,---,0.07,VWS V14.01,2013-09-30 09:07:00,
2013-09-30 02:10:00,42.0,36.9,29.72,NW,304,20.0,27.0,82,0.02,,---,0.07,VWS V14.01,2013-09-30 09:10:00,
2013-09-30 02:11:00,41.9,36.5,29.73,WSW,250,14.0,27.0,81,0.02,,---,0.07,VWS V14.01,2013-09-30 09:11:00,
2013-09-30 02:12:00,41.6,36.2,29.73,West,266,13.0,27.0,81,0.02,,---,0.07,VWS V14.01,2013-09-30 09:12:00,
2013-09-30 02:13:00,41.4,36.0,29.73,WNW,291,22.0,27.0,81,0.01,,---,0.07,VWS V14.01,2013-09-30 09:13:00,
2013-09-30 02:17:00,40.5,35.1,29.73,WSW,255,12.0,32.0,81,0.01,,---,0.07,VWS V14.01,2013-09-30 09:17:00,
2013-09-30 02:18:00,40.4,35.3,29.73,WSW,246,11.0,32.0,82,0.01,,---,0.07,VWS V14.01,2013-09-30 09:18:00,
2013-09-30 02:19:00,40.2,35.5,29.73,WSW,238,12.0,32.0,83,0.01,,---,0.07,VWS V14.01,2013-09-30 09:19:00,
2013-09-30 02:20:00,40.1,35.4,29.72,WSW,239,12.0,32.0,83,0.01,,---,0.07,VWS V14.01,2013-09-30 09:20:00,
2013-09-30 02:21:00,40.0,35.6,29.73,WSW,242,10.0,32.0,84,0.01,,---,0.07,VWS V14.01,2013-09-30 09:21:00,
2013-09-30 02:22:00,39.9,34.9,29.73,SW,235,13.0,20.0,82,0.00,,---,0.07,VWS V14.01,2013-09-30 09:22:00,
2013-09-30 02:25:00,39.8,34.8,29.74,SW,227,10.0,23.0,82,0.00,,---,0.07,VWS V14.01,2013-09-30 09:25:00,
2013-09-30 02:26:00,39.7,34.7,29.74,West,277,20.0,23.0,82,0.00,,---,0.07,VWS V14.01,2013-09-30 09:26:00,
2013-09-30 02:28:00,39.6,34.6,29.73,SW,232,15.0,23.0,82,0.00,,---,0.07,VWS V14.01,2013-09-30 09:28:00,
2013-09-30 02:32:00,39.5,34.5,29.74,SW,214,13.0,23.0,82,0.00,,---,0.07,VWS V14.01,2013-09-30 09:32:00,
2013-09-30 02:33:00,39.6,34.6,29.74,SW,214,13.0,17.0,82,0.00,,---,0.07,VWS V14.01,2013-09-30 09:33:00,
2013-09-30 02:34:00,39.6,34.3,29.75,SW,221,15.0,18.0,81,0.00,,---,0.07,VWS V14.01,2013-09-30 09:34:00,
2013-09-30 02:36:00,39.6,34.6,29.76,SW,230,8.0,18.0,82,0.00,,---,0.07,VWS V14.01,2013-09-30 09:36:00,
2013-09-30 02:39:00,39.7,33.7,29.75,WSW,241,12.0,24.0,79,0.00,,---,0.07,VWS V14.01,2013-09-30 09:39:00,
2013-09-30 02:40:00,39.8,34.1,29.75,West,271,12.0,24.0,80,0.00,,---,0.07,VWS V14.01,2013-09-30 09:40:00,
2013-09-30 02:41:00,39.8,34.1,29.75,SW,230,5.0,24.0,80,0.00,,---,0.07,VWS V14.01,2013-09-30 09:41:00,
2013-09-30 02:42:00,39.8,34.1,29.74,SW,215,5.0,5.0,80,0.00,,---,0.07,VWS V14.01,2013-09-30 09:42:00,
2013-09-30 02:45:00,39.5,33.8,29.75,WSW,254,12.0,20.0,80,0.00,,---,0.07,VWS V14.01,2013-09-30 09:45:00,
2013-09-30 02:47:00,39.5,34.2,29.75,SSW,211,15.0,20.0,81,0.00,,---,0.07,VWS V14.01,2013-09-30 09:47:00,
2013-09-30 02:48:00,39.5,34.2,29.75,SW,217,12.0,20.0,81,0.00,,---,0.07,VWS V14.01,2013-09-30 09:48:00,
2013-09-30 02:49:00,39.5,33.8,29.75,SW,219,11.0,20.0,80,0.00,,---,0.07,VWS V14.01,2013-09-30 09:49:00,
2013-09-30 02:52:00,39.6,34.0,29.76,SSW,206,14.0,16.0,80,0.00,,---,0.07,VWS V14.01,2013-09-30 09:52:00,
2013-09-30 02:53:00,39.7,34.0,29.75,WSW,240,6.0,16.0,80,0.00,,---,0.07,VWS V14.01,2013-09-30 09:53:00,
2013-09-30 02:54:00,39.7,34.4,29.74,SSW,194,9.0,16.0,81,0.00,,---,0.07,VWS V14.01,2013-09-30 09:54:00,
2013-09-30 02:56:00,39.7,34.7,29.74,WSW,253,4.0,16.0,82,0.00,,---,0.07,VWS V14.01,2013-09-30 09:56:00,
2013-09-30 02:58:00,39.6,34.3,29.75,SW,233,14.0,18.0,81,0.00,,---,0.07,VWS V14.01,2013-09-30 09:58:00,
2013-09-30 03:01:00,39.6,34.3,29.75,SW,227,8.0,18.0,81,0.00,,---,0.07,VWS V14.01,2013-09-30 10:01:00,
2013-09-30 03:02:00,39.6,34.6,29.74,SW,221,10.0,10.0,82,0.00,,---,0.07,VWS V14.01,2013-09-30 10:02:00,
2013-09-30 03:03:00,39.6,34.6,29.74,SSW,212,13.0,14.0,82,0.00,,---,0.07,VWS V14.01,2013-09-30 10:03:00,
2013-09-30 03:06:00,39.7,35.0,29.75,SSW,213,15.0,15.0,83,0.00,,---,0.07,VWS V14.01,2013-09-30 10:06:00,
2013-09-30 03:07:00,39.7,35.0,29.75,SSW,207,9.0,16.0,83,0.00,,---,0.07,VWS V14.01,2013-09-30 10:07:00,
2013-09-30 03:10:00,39.6,35.2,29.75,SSW,213,13.0,16.0,84,0.00,,---,0.07,VWS V14.01,2013-09-30 10:10:00,
2013-09-30 03:11:00,39.6,34.9,29.75,SSW,200,9.0,16.0,83,0.00,,---,0.07,VWS V14.01,2013-09-30 10:11:00,
2013-09-30 03:12:00,39.6,35.2,29.74,South,190,8.0,16.0,84,0.00,,---,0.07,VWS V14.01,2013-09-30 10:12:00,
2013-09-30 03:16:00,39.4,35.3,29.74,South,186,9.0,11.0,85,0.00,,---,0.07,VWS V14.01,2013-09-30 10:16:00,
2013-09-30 03:17:00,39.3,35.2,29.75,SSW,212,10.0,11.0,85,0.00,,---,0.07,VWS V14.01,2013-09-30 10:17:00,
2013-09-30 03:18:00,39.3,35.2,29.74,SSW,212,6.0,11.0,85,0.00,,---,0.07,VWS V14.01,2013-09-30 10:18:00,
2013-09-30 03:21:00,39.2,35.4,29.74,SW,227,5.0,12.0,86,0.00,,---,0.07,VWS V14.01,2013-09-30 10:21:00,
2013-09-30 03:22:00,39.2,35.4,29.74,SSW,209,6.0,6.0,86,0.00,,---,0.07,VWS V14.01,2013-09-30 10:22:00,
2013-09-30 03:23:00,39.2,35.4,29.75,SW,225,4.0,8.0,86,0.00,,---,0.07,VWS V14.01,2013-09-30 10:23:00,
2013-09-30 03:25:00,39.1,35.3,29.75,SSW,202,6.0,9.0,86,0.00,,---,0.07,VWS V14.01,2013-09-30 10:25:00,
2013-09-30 03:26:00,39.0,35.2,29.75,SSW,197,7.0,9.0,86,0.00,,---,0.07,VWS V14.01,2013-09-30 10:26:00,
2013-09-30 03:27:00,39.0,35.2,29.75,SSW,197,7.0,9.0,86,0.00,,---,0.07,VWS V14.01,2013-09-30 10:27:00,
2013-09-30 03:28:00,39.0,35.2,29.75,SSW,194,8.0,11.0,86,0.00,,---,0.07,VWS V14.01,2013-09-30 10:28:00,
2013-09-30 03:29:00,39.0,35.2,29.75,SSW,196,7.0,11.0,86,0.00,,---,0.07,VWS V14.01,2013-09-30 10:29:00,
2013-09-30 03:31:00,39.0,35.5,29.75,South,190,6.0,11.0,87,0.00,,---,0.07,VWS V14.01,2013-09-30 10:31:00,
2013-09-30 03:32:00,38.9,35.4,29.75,SSW,194,8.0,11.0,87,0.00,,---,0.07,VWS V14.01,2013-09-30 10:32:00,
2013-09-30 03:33:00,38.9,35.4,29.75,SSW,196,8.0,10.0,87,0.00,,---,0.07,VWS V14.01,2013-09-30 10:33:00,
2013-09-30 03:34:00,38.9,35.4,29.75,South,175,9.0,10.0,87,0.00,,---,0.07,VWS V14.01,2013-09-30 10:34:00,
2013-09-30 03:36:00,38.8,35.3,29.75,SSW,194,8.0,10.0,87,0.00,,---,0.07,VWS V14.01,2013-09-30 10:36:00,
2013-09-30 03:38:00,38.8,35.3,29.75,SSW,204,9.0,13.0,87,0.00,,---,0.07,VWS V14.01,2013-09-30 10:38:00,
2013-09-30 03:39:00,38.8,35.3,29.75,SSW,207,9.0,13.0,87,0.00,,---,0.07,VWS V14.01,2013-09-30 10:39:00,
2013-09-30 03:40:00,38.9,35.4,29.76,SSW,208,10.0,13.0,87,0.00,,---,0.07,VWS V14.01,2013-09-30 10:40:00,
2013-09-30 03:42:00,38.8,35.6,29.75,SSW,208,6.0,13.0,88,0.00,,---,0.07,VWS V14.01,2013-09-30 10:42:00,
2013-09-30 03:44:00,38.9,35.1,29.76,SSW,196,10.0,13.0,86,0.00,,---,0.07,VWS V14.01,2013-09-30 10:44:00,
2013-09-30 03:45:00,39.0,35.5,29.76,SSW,210,7.0,13.0,87,0.00,,---,0.07,VWS V14.01,2013-09-30 10:45:00,
2013-09-30 03:47:00,39.2,35.4,29.76,SW,215,11.0,15.0,86,0.00,,---,0.07,VWS V14.01,2013-09-30 10:47:00,
2013-09-30 03:48:00,39.2,35.1,29.76,WSW,252,13.0,18.0,85,0.00,,---,0.07,VWS V14.01,2013-09-30 10:48:00,
2013-09-30 03:49:00,39.3,35.2,29.76,South,184,5.0,18.0,85,0.00,,---,0.07,VWS V14.01,2013-09-30 10:49:00,
2013-09-30 03:50:00,39.4,35.3,29.76,SSW,207,7.0,18.0,85,0.00,,---,0.07,VWS V14.01,2013-09-30 10:50:00,
2013-09-30 03:51:00,39.3,35.2,29.76,SSW,208,6.0,18.0,85,0.00,,---,0.07,VWS V14.01,2013-09-30 10:51:00,
2013-09-30 03:53:00,39.3,35.5,29.75,SSW,202,6.0,7.0,86,0.00,,---,0.07,VWS V14.01,2013-09-30 10:53:00,
2013-09-30 03:55:00,39.1,35.3,29.75,SSW,211,5.0,8.0,86,0.00,,---,0.07,VWS V14.01,2013-09-30 10:55:00,
2013-09-30 03:57:00,39.0,35.5,29.76,SW,225,4.0,8.0,87,0.00,,---,0.07,VWS V14.01,2013-09-30 10:57:00,
2013-09-30 03:59:00,38.8,35.3,29.76,South,190,4.0,8.0,87,0.00,,---,0.07,VWS V14.01,2013-09-30 10:59:00,
2013-09-30 04:02:00,38.8,35.3,29.76,SSW,207,5.0,7.0,87,0.00,,---,0.07,VWS V14.01,2013-09-30 11:02:00,
2013-09-30 04:03:00,38.8,35.3,29.76,SSW,192,5.0,7.0,87,0.00,,---,0.07,VWS V14.01,2013-09-30 11:03:00,
2013-09-30 04:04:00,38.8,35.3,29.76,South,174,6.0,7.0,87,0.00,,---,0.07,VWS V14.01,2013-09-30 11:04:00,
2013-09-30 04:05:00,38.7,35.2,29.76,South,184,5.0,7.0,87,0.00,,---,0.07,VWS V14.01,2013-09-30 11:05:00,
2013-09-30 04:08:00,38.6,35.4,29.77,South,185,5.0,10.0,88,0.00,,---,0.07,VWS V14.01,2013-09-30 11:08:00,
2013-09-30 04:12:00,38.6,35.4,29.77,SSE,165,5.0,10.0,88,0.00,,---,0.07,VWS V14.01,2013-09-30 11:12:00,
2013-09-30 04:14:00,38.6,35.4,29.77,SSE,160,6.0,7.0,88,0.00,,---,0.07,VWS V14.01,2013-09-30 11:14:00,
2013-09-30 04:16:00,38.5,35.3,29.77,SSE,159,6.0,8.0,88,0.00,,---,0.07,VWS V14.01,2013-09-30 11:16:00,
2013-09-30 04:17:00,38.5,35.3,29.77,SSE,159,4.0,8.0,88,0.00,,---,0.07,VWS V14.01,2013-09-30 11:17:00,
2013-09-30 04:18:00,38.5,35.3,29.77,SSE,159,5.0,8.0,88,0.00,,---,0.07,VWS V14.01,2013-09-30 11:18:00,
2013-09-30 04:19:00,38.4,35.2,29.77,South,169,5.0,8.0,88,0.00,,---,0.07,VWS V14.01,2013-09-30 11:19:00,
2013-09-30 04:21:00,38.4,34.9,29.77,South,184,5.0,10.0,87,0.00,,---,0.07,VWS V14.01,2013-09-30 11:21:00,
2013-09-30 04:22:00,38.4,34.9,29.77,South,184,4.0,6.0,87,0.00,,---,0.07,VWS V14.01,2013-09-30 11:22:00,
2013-09-30 04:26:00,38.4,34.9,29.77,South,182,5.0,7.0,87,0.00,,---,0.07,VWS V14.01,2013-09-30 11:26:00,
2013-09-30 04:27:00,38.5,35.0,29.77,South,177,5.0,10.0,87,0.00,,---,0.07,VWS V14.01,2013-09-30 11:27:00,
2013-09-30 04:30:00,38.5,35.0,29.77,South,173,7.0,10.0,87,0.00,,---,0.07,VWS V14.01,2013-09-30 11:30:00,
2013-09-30 04:31:00,38.6,35.1,29.77,South,181,6.0,10.0,87,0.00,,---,0.07,VWS V14.01,2013-09-30 11:31:00,
2013-09-30 04:32:00,38.6,35.1,29.77,South,177,7.0,8.0,87,0.00,,---,0.07,VWS V14.01,2013-09-30 11:32:00,
2013-09-30 04:34:00,38.6,35.1,29.77,South,184,6.0,9.0,87,0.00,,---,0.07,VWS V14.01,2013-09-30 11:34:00,
2013-09-30 04:37:00,38.6,35.1,29.77,South,177,4.0,9.0,87,0.00,,---,0.07,VWS V14.01,2013-09-30 11:37:00,
2013-09-30 04:38:00,38.6,35.1,29.77,South,182,6.0,9.0,87,0.00,,---,0.07,VWS V14.01,2013-09-30 11:38:00,
2013-09-30 04:39:00,38.6,35.1,29.77,WSW,253,10.0,10.0,87,0.00,,---,0.07,VWS V14.01,2013-09-30 11:39:00,
2013-09-30 04:40:00,38.6,34.8,29.77,South,185,5.0,10.0,86,0.00,,---,0.07,VWS V14.01,2013-09-30 11:40:00,
2013-09-30 04:42:00,38.7,35.2,29.77,SSW,194,4.0,6.0,87,0.00,,---,0.07,VWS V14.01,2013-09-30 11:42:00,
2013-09-30 04:44:00,38.6,35.1,29.78,South,191,4.0,7.0,87,0.00,,---,0.07,VWS V14.01,2013-09-30 11:44:00,
2013-09-30 04:45:00,38.6,35.1,29.78,South,184,8.0,9.0,87,0.00,,---,0.07,VWS V14.01,2013-09-30 11:45:00,
2013-09-30 04:46:00,38.6,35.1,29.78,SSW,209,8.0,9.0,87,0.00,,---,0.07,VWS V14.01,2013-09-30 11:46:00,
2013-09-30 04:49:00,38.7,35.2,29.78,SSW,192,7.0,9.0,87,0.00,,---,0.07,VWS V14.01,2013-09-30 11:49:00,
2013-09-30 04:50:00,38.7,34.9,29.78,SSW,196,4.0,9.0,86,0.00,,---,0.07,VWS V14.01,2013-09-30 11:50:00,
2013-09-30 04:51:00,38.7,34.9,29.78,SSW,192,6.0,9.0,86,0.00,,---,0.07,VWS V14.01,2013-09-30 11:51:00,
2013-09-30 04:53:00,38.7,34.9,29.78,SSW,198,5.0,6.0,86,0.00,,---,0.07,VWS V14.01,2013-09-30 11:53:00,
2013-09-30 04:55:00,38.6,34.8,29.78,SSW,197,8.0,12.0,86,0.00,,---,0.07,VWS V14.01,2013-09-30 11:55:00,
2013-09-30 04:56:00,38.7,34.9,29.78,SSW,192,9.0,12.0,86,0.00,,---,0.07,VWS V14.01,2013-09-30 11:56:00,
2013-09-30 04:57:00,38.7,34.6,29.78,SSW,193,10.0,12.0,85,0.00,,---,0.07,VWS V14.01,2013-09-30 11:57:00,
2013-09-30 04:58:00,38.7,34.6,29.78,South,186,6.0,12.0,85,0.00,,---,0.07,VWS V14.01,2013-09-30 11:58:00,
2013-09-30 05:00:00,38.8,35.0,29.78,South,182,3.0,12.0,86,0.00,,---,0.07,VWS V14.01,2013-09-30 12:00:00,
2013-09-30 05:02:00,38.7,34.6,29.78,SSE,166,9.0,9.0,85,0.00,,---,0.07,VWS V14.01,2013-09-30 12:02:00,
2013-09-30 05:03:00,38.6,34.8,29.78,SSW,198,4.0,9.0,86,0.00,,---,0.07,VWS V14.01,2013-09-30 12:03:00,
2013-09-30 05:04:00,38.6,34.8,29.78,South,184,3.0,9.0,86,0.00,,---,0.07,VWS V14.01,2013-09-30 12:04:00,
2013-09-30 05:05:00,38.6,34.5,29.78,South,173,7.0,11.0,85,0.00,,---,0.07,VWS V14.01,2013-09-30 12:05:00,
2013-09-30 05:07:00,38.6,34.5,29.78,South,173,7.0,11.0,85,0.00,,---,0.07,VWS V14.01,2013-09-30 12:07:00,
2013-09-30 05:08:00,38.6,34.5,29.78,South,184,8.0,11.0,85,0.00,,---,0.07,VWS V14.01,2013-09-30 12:08:00,
2013-09-30 05:09:00,38.6,34.5,29.78,South,182,5.0,11.0,85,0.00,,---,0.07,VWS V14.01,2013-09-30 12:09:00,
2013-09-30 05:11:00,38.7,34.3,29.78,SSW,199,6.0,11.0,84,0.00,,---,0.07,VWS V14.01,2013-09-30 12:11:00,
2013-09-30 05:13:00,38.7,34.3,29.79,South,190,4.0,11.0,84,0.00,,---,0.07,VWS V14.01,2013-09-30 12:13:00,
2013-09-30 05:14:00,38.7,34.3,29.79,SW,221,6.0,11.0,84,0.00,,---,0.07,VWS V14.01,2013-09-30 12:14:00,
2013-09-30 05:15:00,38.7,34.3,29.79,SSW,200,6.0,11.0,84,0.00,,---,0.07,VWS V14.01,2013-09-30 12:15:00,
2013-09-30 05:17:00,38.6,34.2,29.79,SSW,200,6.0,11.0,84,0.00,,---,0.07,VWS V14.01,2013-09-30 12:17:00,
2013-09-30 05:20:00,38.6,33.9,29.79,SSW,213,6.0,11.0,83,0.00,,---,0.07,VWS V14.01,2013-09-30 12:20:00,
2013-09-30 05:22:00,38.7,34.0,29.80,SSW,198,6.0,6.0,83,0.00,,---,0.07,VWS V14.01,2013-09-30 12:22:00,
2013-09-30 05:23:00,38.7,34.0,29.80,SSW,193,5.0,6.0,83,0.00,,---,0.07,VWS V14.01,2013-09-30 12:23:00,
2013-09-30 05:24:00,38.7,34.0,29.80,SSW,207,7.0,10.0,83,0.00,,---,0.07,VWS V14.01,2013-09-30 12:24:00,
2013-09-30 05:26:00,38.7,33.7,29.80,SW,214,6.0,10.0,82,0.00,,---,0.07,VWS V14.01,2013-09-30 12:26:00,
2013-09-30 05:28:00,38.7,33.7,29.80,SSW,210,8.0,11.0,82,0.00,,---,0.07,VWS V14.01,2013-09-30 12:28:00,
2013-09-30 05:29:00,38.8,33.8,29.80,SSW,213,8.0,11.0,82,0.00,,---,0.07,VWS V14.01,2013-09-30 12:29:00,
2013-09-30 05:31:00,38.7,33.7,29.80,SSW,208,8.0,11.0,82,0.00,,---,0.07,VWS V14.01,2013-09-30 12:31:00,
2013-09-30 05:34:00,38.8,33.5,29.81,SW,230,8.0,13.0,81,0.00,,---,0.07,VWS V14.01,2013-09-30 12:34:00,
2013-09-30 05:35:00,38.8,33.5,29.81,SSW,207,8.0,13.0,81,0.00,,---,0.07,VWS V14.01,2013-09-30 12:35:00,
2013-09-30 05:36:00,38.9,33.3,29.81,SW,227,10.0,14.0,80,0.00,,---,0.07,VWS V14.01,2013-09-30 12:36:00,
2013-09-30 05:37:00,39.0,33.4,29.81,SW,235,5.0,14.0,80,0.00,,---,0.07,VWS V14.01,2013-09-30 12:37:00,
2013-09-30 05:40:00,39.1,33.5,29.81,SSW,208,7.0,14.0,80,0.00,,---,0.07,VWS V14.01,2013-09-30 12:40:00,
2013-09-30 05:42:00,39.2,33.2,29.81,SSW,212,9.0,14.0,79,0.00,,---,0.07,VWS V14.01,2013-09-30 12:42:00,
2013-09-30 05:43:00,39.3,33.7,29.81,WSW,250,2.0,9.0,80,0.00,,---,0.07,VWS V14.01,2013-09-30 12:43:00,
2013-09-30 05:46:00,39.1,33.5,29.81,SW,217,6.0,9.0,80,0.00,,---,0.07,VWS V14.01,2013-09-30 12:46:00,
2013-09-30 05:47:00,39.1,33.5,29.82,SSW,200,5.0,9.0,80,0.00,,---,0.07,VWS V14.01,2013-09-30 12:47:00,
2013-09-30 05:49:00,39.0,33.4,29.82,South,178,5.0,9.0,80,0.00,,---,0.07,VWS V14.01,2013-09-30 12:49:00,
2013-09-30 05:51:00,38.9,33.3,29.82,South,188,6.0,9.0,80,0.00,,---,0.07,VWS V14.01,2013-09-30 12:51:00,
2013-09-30 05:52:00,38.9,33.3,29.82,South,188,6.0,9.0,80,0.00,,---,0.07,VWS V14.01,2013-09-30 12:52:00,
2013-09-30 05:53:00,38.9,33.3,29.81,SSE,153,7.0,7.0,80,0.00,,---,0.07,VWS V14.01,2013-09-30 12:53:00,
2013-09-30 05:55:00,38.8,33.2,29.82,SSE,153,5.0,8.0,80,0.00,,---,0.07,VWS V14.01,2013-09-30 12:55:00,
2013-09-30 05:57:00,38.7,33.4,29.82,SSE,150,5.0,9.0,81,0.00,,---,0.07,VWS V14.01,2013-09-30 12:57:00,
2013-09-30 05:58:00,38.7,33.4,29.82,SSE,150,3.0,9.0,81,0.00,,---,0.07,VWS V14.01,2013-09-30 12:58:00,
2013-09-30 06:02:00,38.5,32.9,29.82,SSE,164,6.0,9.0,80,0.00,,---,0.07,VWS V14.01,2013-09-30 13:02:00,
2013-09-30 06:03:00,38.4,33.4,29.82,SSE,167,9.0,9.0,82,0.00,,---,0.07,VWS V14.01,2013-09-30 13:03:00,
2013-09-30 06:04:00,38.3,33.0,29.82,SSE,159,7.0,11.0,81,0.00,,---,0.07,VWS V14.01,2013-09-30 13:04:00,
2013-09-30 06:05:00,38.2,32.9,29.82,SSE,161,7.0,11.0,81,0.00,,---,0.07,VWS V14.01,2013-09-30 13:05:00,
2013-09-30 06:07:00,38.1,32.5,29.82,SSE,165,12.0,12.0,80,0.00,,---,0.07,VWS V14.01,2013-09-30 13:07:00,
2013-09-30 06:09:00,38.0,32.4,29.82,South,171,8.0,12.0,80,0.00,,---,0.07,VWS V14.01,2013-09-30 13:09:00,
2013-09-30 06:10:00,38.0,32.7,29.82,South,178,8.0,12.0,81,0.00,,---,0.07,VWS V14.01,2013-09-30 13:10:00,
2013-09-30 06:11:00,38.0,32.7,29.82,South,181,5.0,12.0,81,0.00,,---,0.07,VWS V14.01,2013-09-30 13:11:00,
2013-09-30 06:12:00,37.9,32.6,29.82,South,174,9.0,9.0,81,0.00,,---,0.07,VWS V14.01,2013-09-30 13:12:00,
2013-09-30 06:13:00,37.9,32.6,29.82,South,177,9.0,12.0,81,0.00,,---,0.07,VWS V14.01,2013-09-30 13:13:00,
2013-09-30 06:15:00,37.9,32.6,29.82,South,176,12.0,15.0,81,0.00,,---,0.07,VWS V14.01,2013-09-30 13:15:00,
2013-09-30 06:16:00,38.0,32.7,29.82,SSE,167,6.0,15.0,81,0.00,,---,0.07,VWS V14.01,2013-09-30 13:16:00,
2013-09-30 06:18:00,37.9,32.6,29.82,South,174,12.0,19.0,81,0.00,,---,0.07,VWS V14.01,2013-09-30 13:18:00,
2013-09-30 06:20:00,38.0,32.7,29.82,South,170,8.0,19.0,81,0.00,,---,0.07,VWS V14.01,2013-09-30 13:20:00,
2013-09-30 06:21:00,38.0,32.7,29.82,SSE,161,9.0,19.0,81,0.00,,---,0.07,VWS V14.01,2013-09-30 13:21:00,
2013-09-30 06:22:00,37.9,32.6,29.82,SSW,211,6.0,10.0,81,0.00,,---,0.07,VWS V14.01,2013-09-30 13:22:00,
2013-09-30 06:25:00,37.8,32.8,29.82,South,175,10.0,11.0,82,0.00,,---,0.07,VWS V14.01,2013-09-30 13:25:00,
2013-09-30 06:26:00,37.8,32.8,29.82,SSE,167,8.0,11.0,82,0.00,,---,0.07,VWS V14.01,2013-09-30 13:26:00,
2013-09-30 06:28:00,37.8,32.8,29.82,SSE,151,8.0,11.0,82,0.00,,---,0.07,VWS V14.01,2013-09-30 13:28:00,
2013-09-30 06:30:00,37.7,32.7,29.82,SSW,192,9.0,14.0,82,0.00,,---,0.07,VWS V14.01,2013-09-30 13:30:00,
2013-09-30 06:32:00,37.8,32.5,29.83,SSW,193,9.0,14.0,81,0.00,,---,0.07,VWS V14.01,2013-09-30 13:32:00,
2013-09-30 06:37:00,37.8,32.5,29.83,SSE,161,7.0,11.0,81,0.00,,---,0.07,VWS V14.01,2013-09-30 13:37:00,
2013-09-30 06:38:00,37.8,32.5,29.83,South,169,6.0,11.0,81,0.00,,---,0.07,VWS V14.01,2013-09-30 13:38:00,
2013-09-30 06:42:00,37.8,32.2,29.83,South,171,13.0,14.0,80,0.00,,---,0.07,VWS V14.01,2013-09-30 13:42:00,
2013-09-30 06:43:00,37.9,32.3,29.83,SSE,159,13.0,14.0,80,0.00,,---,0.07,VWS V14.01,2013-09-30 13:43:00,
2013-09-30 06:44:00,37.9,32.3,29.83,South,188,6.0,14.0,80,0.00,,---,0.07,VWS V14.01,2013-09-30 13:44:00,
2013-09-30 06:45:00,38.0,32.4,29.83,SSW,194,8.0,14.0,80,0.00,,---,0.07,VWS V14.01,2013-09-30 13:45:00,
2013-09-30 06:48:00,38.1,32.2,29.83,SSW,192,10.0,15.0,79,0.00,,---,0.07,VWS V14.01,2013-09-30 13:48:00,
2013-09-30 06:49:00,38.1,32.2,29.83,SSW,197,13.0,15.0,79,0.00,,---,0.07,VWS V14.01,2013-09-30 13:49:00,
2013-09-30 06:50:00,38.2,32.3,29.83,South,175,13.0,16.0,79,0.00,,---,0.07,VWS V14.01,2013-09-30 13:50:00,
2013-09-30 06:54:00,38.2,32.3,29.83,SSW,206,9.0,16.0,79,0.00,,---,0.07,VWS V14.01,2013-09-30 13:54:00,
2013-09-30 06:55:00,38.3,32.0,29.83,SSW,205,13.0,18.0,78,0.00,,---,0.07,VWS V14.01,2013-09-30 13:55:00,
2013-09-30 06:56:00,38.3,32.0,29.83,SSE,160,13.0,18.0,78,0.00,,---,0.07,VWS V14.01,2013-09-30 13:56:00,
2013-09-30 06:59:00,38.4,32.2,29.83,SE,138,14.0,18.0,78,0.00,,---,0.07,VWS V14.01,2013-09-30 13:59:00,
2013-09-30 07:00:00,38.4,32.2,29.83,South,190,16.0,18.0,78,0.00,,---,0.07,VWS V14.01,2013-09-30 14:00:00,
2013-09-30 07:01:00,38.4,32.2,29.83,SSE,166,10.0,18.0,78,0.00,,---,0.07,VWS V14.01,2013-09-30 14:01:00,
2013-09-30 07:02:00,38.4,31.8,29.83,South,182,11.0,16.0,77,0.00,,---,0.07,VWS V14.01,2013-09-30 14:02:00,
2013-09-30 07:03:00,38.4,31.8,29.83,SSW,194,7.0,20.0,77,0.00,,---,0.07,VWS V14.01,2013-09-30 14:03:00,
2013-09-30 07:05:00,38.4,31.8,29.83,South,188,10.0,20.0,77,0.00,,---,0.07,VWS V14.01,2013-09-30 14:05:00,
2013-09-30 07:07:00,38.4,31.8,29.83,South,188,8.0,20.0,77,0.00,,---,0.07,VWS V14.01,2013-09-30 14:07:00,
2013-09-30 07:08:00,38.4,31.8,29.83,South,186,10.0,20.0,77,0.00,,---,0.07,VWS V14.01,2013-09-30 14:08:00,
2013-09-30 07:09:00,38.4,31.8,29.83,South,179,11.0,20.0,77,0.00,,---,0.07,VWS V14.01,2013-09-30 14:09:00,
2013-09-30 07:12:00,38.5,31.6,29.84,SSE,163,11.0,21.0,76,0.00,,---,0.07,VWS V14.01,2013-09-30 14:12:00,
2013-09-30 07:14:00,38.6,32.0,29.84,South,187,9.0,15.0,77,0.00,,---,0.07,VWS V14.01,2013-09-30 14:14:00,
2013-09-30 07:15:00,38.5,31.9,29.84,SSE,166,12.0,15.0,77,0.00,,---,0.07,VWS V14.01,2013-09-30 14:15:00,
2013-09-30 07:16:00,38.6,32.0,29.84,SSW,203,9.0,16.0,77,0.00,,---,0.07,VWS V14.01,2013-09-30 14:16:00,
2013-09-30 07:17:00,38.5,31.9,29.84,South,173,12.0,16.0,77,0.00,,---,0.07,VWS V14.01,2013-09-30 14:17:00,
2013-09-30 07:22:00,38.7,31.8,29.83,South,185,7.0,19.0,76,0.00,,---,0.07,VWS V14.01,2013-09-30 14:22:00,
2013-09-30 07:24:00,38.8,31.9,29.84,SSW,193,10.0,17.0,76,0.00,,---,0.07,VWS V14.01,2013-09-30 14:24:00,
2013-09-30 07:27:00,38.9,32.0,29.84,SSE,168,17.0,20.0,76,0.00,,---,0.07,VWS V14.01,2013-09-30 14:27:00,
2013-09-30 07:28:00,38.9,32.0,29.84,South,173,8.0,20.0,76,0.00,,---,0.07,VWS V14.01,2013-09-30 14:28:00,
2013-09-30 07:29:00,39.0,32.1,29.84,South,178,7.0,20.0,76,0.00,,---,0.07,VWS V14.01,2013-09-30 14:29:00,
2013-09-30 07:30:00,39.0,31.8,29.84,South,171,15.0,20.0,75,0.00,,---,0.07,VWS V14.01,2013-09-30 14:30:00,
2013-09-30 07:32:00,39.1,31.9,29.84,SSW,196,14.0,20.0,75,0.00,,---,0.07,VWS V14.01,2013-09-30 14:32:00,
2013-09-30 07:34:00,39.2,32.0,29.84,SSW,198,12.0,20.0,75,0.00,,---,0.07,VWS V14.01,2013-09-30 14:34:00,
2013-09-30 07:36:00,39.3,32.0,29.85,SSE,166,9.0,20.0,75,0.00,,---,0.07,VWS V14.01,2013-09-30 14:36:00,
2013-09-30 07:37:00,39.3,32.0,29.85,South,184,11.0,20.0,75,0.00,,---,0.07,VWS V14.01,2013-09-30 14:37:00,
2013-09-30 07:41:00,39.4,32.2,29.85,SSW,203,9.0,20.0,75,0.00,,---,0.07,VWS V14.01,2013-09-30 14:41:00,
2013-09-30 07:42:00,39.5,32.2,29.85,SW,219,11.0,20.0,75,0.00,,---,0.07,VWS V14.01,2013-09-30 14:42:00,
2013-09-30 07:43:00,39.5,32.2,29.85,South,173,15.0,20.0,75,0.00,,---,0.07,VWS V14.01,2013-09-30 14:43:00,
2013-09-30 07:46:00,39.6,32.3,29.85,SSW,199,12.0,20.0,75,0.00,,---,0.07,VWS V14.01,2013-09-30 14:46:00,
2013-09-30 07:48:00,39.7,32.4,29.86,SSW,199,10.0,20.0,75,0.00,,---,0.07,VWS V14.01,2013-09-30 14:48:00,
2013-09-30 07:49:00,39.7,32.1,29.86,SSW,194,11.0,20.0,74,0.00,,---,0.07,VWS V14.01,2013-09-30 14:49:00,
2013-09-30 07:50:00,39.7,32.4,29.86,SSW,209,7.0,20.0,75,0.00,,---,0.07,VWS V14.01,2013-09-30 14:50:00,
2013-09-30 07:51:00,39.8,32.5,29.86,SSW,202,14.0,20.0,75,0.00,,---,0.07,VWS V14.01,2013-09-30 14:51:00,
2013-09-30 07:55:00,39.9,32.3,29.86,South,184,13.0,19.0,74,0.00,,---,0.07,VWS V14.01,2013-09-30 14:55:00,
2013-09-30 07:56:00,40.0,32.4,29.86,South,175,10.0,19.0,74,0.00,,---,0.07,VWS V14.01,2013-09-30 14:56:00,
2013-09-30 07:57:00,40.0,32.7,29.86,South,173,14.0,19.0,75,0.00,,---,0.07,VWS V14.01,2013-09-30 14:57:00,
2013-09-30 08:00:00,40.2,32.9,29.86,South,186,8.0,19.0,75,0.00,,---,0.07,VWS V14.01,2013-09-30 15:00:00,
2013-09-30 08:02:00,40.3,33.0,29.86,SSW,213,7.0,19.0,75,0.00,,---,0.07,VWS V14.01,2013-09-30 15:02:00,
2013-09-30 08:03:00,40.3,32.7,29.86,SSW,211,16.0,18.0,74,0.00,,---,0.07,VWS V14.01,2013-09-30 15:03:00,
2013-09-30 08:05:00,40.3,32.7,29.86,SSW,197,10.0,18.0,74,0.00,,---,0.07,VWS V14.01,2013-09-30 15:05:00,
2013-09-30 08:06:00,40.3,33.0,29.86,SSW,201,9.0,18.0,75,0.00,,---,0.07,VWS V14.01,2013-09-30 15:06:00,
2013-09-30 08:07:00,40.4,32.4,29.86,SW,214,12.0,23.0,73,0.00,,---,0.07,VWS V14.01,2013-09-30 15:07:00,
2013-09-30 08:09:00,40.4,32.8,29.85,SW,215,13.0,23.0,74,0.00,,---,0.07,VWS V14.01,2013-09-30 15:09:00,
2013-09-30 08:11:00,40.4,32.8,29.86,SSW,203,11.0,23.0,74,0.00,,---,0.07,VWS V14.01,2013-09-30 15:11:00,
2013-09-30 08:13:00,40.5,32.9,29.86,SSW,209,9.0,20.0,74,0.00,,---,0.07,VWS V14.01,2013-09-30 15:13:00,
2013-09-30 08:14:00,40.6,33.0,29.86,SSW,207,24.0,24.0,74,0.00,,---,0.07,VWS V14.01,2013-09-30 15:14:00,
2013-09-30 08:15:00,40.6,33.0,29.86,SW,214,13.0,24.0,74,0.00,,---,0.07,VWS V14.01,2013-09-30 15:15:00,
2013-09-30 08:17:00,40.6,33.0,29.86,SSW,207,16.0,24.0,74,0.00,,---,0.07,VWS V14.01,2013-09-30 15:17:00,
2013-09-30 08:19:00,40.7,33.1,29.86,SSW,207,11.0,24.0,74,0.00,,---,0.07,VWS V14.01,2013-09-30 15:19:00,
2013-09-30 08:21:00,40.8,33.5,29.86,SW,236,10.0,24.0,75,0.00,,---,0.07,VWS V14.01,2013-09-30 15:21:00,
2013-09-30 08:22:00,40.9,33.3,29.86,SSW,196,13.0,19.0,74,0.00,,---,0.07,VWS V14.01,2013-09-30 15:22:00,
2013-09-30 08:24:00,40.9,32.9,29.86,SSW,193,20.0,22.0,73,0.00,,---,0.07,VWS V14.01,2013-09-30 15:24:00,
2013-09-30 08:25:00,40.9,32.9,29.86,SW,227,10.0,22.0,73,0.00,,---,0.07,VWS V14.01,2013-09-30 15:25:00,
2013-09-30 08:27:00,41.1,33.5,29.86,South,187,9.0,22.0,74,0.00,,---,0.07,VWS V14.01,2013-09-30 15:27:00,
2013-09-30 08:29:00,41.2,33.5,29.86,SW,223,11.0,22.0,74,0.00,,---,0.07,VWS V14.01,2013-09-30 15:29:00,
2013-09-30 08:30:00,41.2,33.5,29.86,SW,222,12.0,22.0,74,0.00,,---,0.07,VWS V14.01,2013-09-30 15:30:00,
2013-09-30 08:31:00,41.2,33.5,29.86,SSW,197,11.0,22.0,74,0.00,,---,0.07,VWS V14.01,2013-09-30 15:31:00,
2013-09-30 08:33:00,41.4,33.4,29.86,SSW,208,17.0,21.0,73,0.00,,---,0.07,VWS V14.01,2013-09-30 15:33:00,
2013-09-30 08:34:00,41.4,33.4,29.86,South,175,13.0,21.0,73,0.00,,---,0.07,VWS V14.01,2013-09-30 15:34:00,
2013-09-30 08:35:00,41.5,33.5,29.86,SSW,210,7.0,21.0,73,0.00,,---,0.07,VWS V14.01,2013-09-30 15:35:00,
2013-09-30 08:38:00,41.6,33.6,29.86,SSW,211,10.0,21.0,73,0.00,,---,0.07,VWS V14.01,2013-09-30 15:38:00,
2013-09-30 08:40:00,41.6,33.6,29.86,SW,222,18.0,25.0,73,0.00,,---,0.07,VWS V14.01,2013-09-30 15:40:00,
2013-09-30 08:44:00,41.7,33.3,29.86,SSW,208,8.0,17.0,72,0.00,,---,0.07,VWS V14.01,2013-09-30 15:44:00,
2013-09-30 08:45:00,41.8,33.8,29.86,South,175,8.0,17.0,73,0.00,,---,0.07,VWS V14.01,2013-09-30 15:45:00,
2013-09-30 08:46:00,41.8,33.5,29.86,SW,232,17.0,20.0,72,0.00,,---,0.07,VWS V14.01,2013-09-30 15:46:00,
2013-09-30 08:48:00,41.9,33.5,29.86,South,174,14.0,20.0,72,0.00,,---,0.07,VWS V14.01,2013-09-30 15:48:00,
2013-09-30 08:50:00,41.9,33.2,29.86,South,187,16.0,20.0,71,0.00,,---,0.07,VWS V14.01,2013-09-30 15:50:00,
2013-09-30 08:52:00,42.0,33.3,29.86,SW,225,19.0,19.0,71,0.00,,---,0.07,VWS V14.01,2013-09-30 15:52:00,
2013-09-30 08:53:00,42.0,33.3,29.87,SW,234,7.0,19.0,71,0.00,,---,0.07,VWS V14.01,2013-09-30 15:53:00,
2013-09-30 08:55:00,42.2,33.5,29.87,SSW,194,16.0,20.0,71,0.00,,---,0.07,VWS V14.01,2013-09-30 15:55:00,
2013-09-30 08:57:00,42.2,33.5,29.87,SSW,201,17.0,20.0,71,0.00,,---,0.07,VWS V14.01,2013-09-30 15:57:00,
2013-09-30 08:58:00,42.2,33.5,29.87,SW,216,16.0,20.0,71,0.00,,---,0.07,VWS V14.01,2013-09-30 15:58:00,
2013-09-30 09:00:00,42.2,33.5,29.87,SW,220,19.0,20.0,71,0.00,,---,0.07,VWS V14.01,2013-09-30 16:00:00,
2013-09-30 09:03:00,42.4,33.7,29.87,SSW,210,11.0,19.0,71,0.00,,---,0.07,VWS V14.01,2013-09-30 16:03:00,
2013-09-30 09:05:00,42.5,33.4,29.87,South,185,6.0,21.0,70,0.00,,---,0.07,VWS V14.01,2013-09-30 16:05:00,
2013-09-30 09:06:00,42.5,33.4,29.87,SW,223,12.0,23.0,70,0.00,,---,0.07,VWS V14.01,2013-09-30 16:06:00,
2013-09-30 09:07:00,42.5,33.8,29.87,SSW,197,11.0,23.0,71,0.00,,---,0.07,VWS V14.01,2013-09-30 16:07:00,
2013-09-30 09:08:00,42.6,33.9,29.87,South,182,10.0,23.0,71,0.00,,---,0.07,VWS V14.01,2013-09-30 16:08:00,
2013-09-30 09:11:00,42.8,34.1,29.88,South,183,9.0,23.0,71,0.00,,---,0.07,VWS V14.01,2013-09-30 16:11:00,
2013-09-30 09:12:00,42.9,34.2,29.88,South,184,14.0,23.0,71,0.00,,---,0.07,VWS V14.01,2013-09-30 16:12:00,
2013-09-30 09:14:00,43.0,33.9,29.88,SSW,212,6.0,18.0,70,0.00,,---,0.07,VWS V14.01,2013-09-30 16:14:00,
2013-09-30 09:16:00,43.2,33.7,29.88,SW,225,12.0,18.0,69,0.00,,---,0.07,VWS V14.01,2013-09-30 16:16:00,
2013-09-30 09:17:00,43.2,34.1,29.88,SSW,197,7.0,18.0,70,0.00,,---,0.07,VWS V14.01,2013-09-30 16:17:00,
2013-09-30 09:19:00,43.4,33.9,29.88,South,188,8.0,18.0,69,0.00,,---,0.07,VWS V14.01,2013-09-30 16:19:00,
2013-09-30 09:20:00,43.4,34.3,29.88,South,186,13.0,18.0,70,0.00,,---,0.07,VWS V14.01,2013-09-30 16:20:00,
2013-09-30 09:21:00,43.5,34.4,29.88,SSE,159,8.0,19.0,70,0.00,,---,0.07,VWS V14.01,2013-09-30 16:21:00,
2013-09-30 09:23:00,43.6,34.1,29.89,SSW,207,14.0,15.0,69,0.00,,---,0.07,VWS V14.01,2013-09-30 16:23:00,
2013-09-30 09:25:00,43.7,34.2,29.88,SW,220,15.0,17.0,69,0.00,,---,0.07,VWS V14.01,2013-09-30 16:25:00,
2013-09-30 09:26:00,43.7,34.2,29.89,SSW,207,12.0,21.0,69,0.00,,---,0.07,VWS V14.01,2013-09-30 16:26:00,
2013-09-30 09:27:00,43.7,34.2,29.88,South,177,7.0,21.0,69,0.00,,---,0.07,VWS V14.01,2013-09-30 16:27:00,
2013-09-30 09:28:00,43.8,34.3,29.88,SSW,213,9.0,21.0,69,0.00,,---,0.07,VWS V14.01,2013-09-30 16:28:00,
2013-09-30 09:31:00,43.8,33.9,29.88,SW,219,11.0,21.0,68,0.00,,---,0.07,VWS V14.01,2013-09-30 16:31:00,
2013-09-30 09:32:00,43.8,33.9,29.88,SW,222,10.0,21.0,68,0.00,,---,0.07,VWS V14.01,2013-09-30 16:32:00,
2013-09-30 09:33:00,43.8,33.9,29.89,SSW,206,11.0,17.0,68,0.00,,---,0.07,VWS V14.01,2013-09-30 16:33:00,
2013-09-30 09:34:00,43.8,33.9,29.89,WSW,238,11.0,17.0,68,0.00,,---,0.07,VWS V14.01,2013-09-30 16:34:00,
2013-09-30 09:37:00,43.8,35.0,29.89,SSW,204,8.0,17.0,71,0.00,,---,0.07,VWS V14.01,2013-09-30 16:37:00,
2013-09-30 09:39:00,44.0,34.5,29.89,SW,228,7.0,17.0,69,0.00,,---,0.07,VWS V14.01,2013-09-30 16:39:00,
2013-09-30 09:42:00,44.4,34.1,29.89,SSW,211,5.0,17.0,67,0.00,,---,0.07,VWS V14.01,2013-09-30 16:42:00,
2013-09-30 09:44:00,44.6,34.3,29.89,SW,228,7.0,16.0,67,0.00,,---,0.07,VWS V14.01,2013-09-30 16:44:00,
2013-09-30 09:45:00,44.6,34.3,29.89,SSW,213,13.0,16.0,67,0.00,,---,0.07,VWS V14.01,2013-09-30 16:45:00,
2013-09-30 09:46:00,44.6,34.3,29.89,SW,223,17.0,20.0,67,0.00,,---,0.07,VWS V14.01,2013-09-30 16:46:00,
2013-09-30 09:47:00,44.6,34.3,29.89,South,190,8.0,20.0,67,0.00,,---,0.07,VWS V14.01,2013-09-30 16:47:00,
2013-09-30 09:50:00,44.7,34.4,29.89,SSW,203,11.0,22.0,67,0.00,,---,0.07,VWS V14.01,2013-09-30 16:50:00,
2013-09-30 09:51:00,44.7,34.0,29.89,SW,218,13.0,22.0,66,0.00,,---,0.07,VWS V14.01,2013-09-30 16:51:00,
2013-09-30 09:52:00,44.7,34.0,29.89,WSW,237,13.0,22.0,66,0.00,,---,0.07,VWS V14.01,2013-09-30 16:52:00,
2013-09-30 09:54:00,44.9,33.9,29.89,SSW,202,15.0,21.0,65,0.00,,---,0.07,VWS V14.01,2013-09-30 16:54:00,
2013-09-30 09:56:00,45.0,34.0,29.89,SSW,208,22.0,23.0,65,0.00,,---,0.07,VWS V14.01,2013-09-30 16:56:00,
2013-09-30 09:58:00,45.2,34.5,29.89,SSW,207,12.0,23.0,66,0.00,,---,0.07,VWS V14.01,2013-09-30 16:58:00,
2013-09-30 10:00:00,45.4,34.7,29.89,SSW,202,9.0,23.0,66,0.00,,---,0.07,VWS V14.01,2013-09-30 17:00:00,
2013-09-30 10:01:00,45.5,34.4,29.89,SSW,196,20.0,23.0,65,0.00,,---,0.07,VWS V14.01,2013-09-30 17:01:00,
2013-09-30 10:02:00,45.5,34.0,29.88,SSW,199,15.0,23.0,64,0.00,,---,0.07,VWS V14.01,2013-09-30 17:02:00,
2013-09-30 10:03:00,45.5,34.0,29.89,SW,215,22.0,24.0,64,0.00,,---,0.07,VWS V14.01,2013-09-30 17:03:00,
2013-09-30 10:05:00,45.5,34.0,29.89,SSW,192,10.0,24.0,64,0.00,,---,0.07,VWS V14.01,2013-09-30 17:05:00,
2013-09-30 10:07:00,45.7,34.2,29.89,SW,215,17.0,24.0,64,0.00,,---,0.07,VWS V14.01,2013-09-30 17:07:00,
2013-09-30 10:08:00,45.7,34.2,29.89,SSW,213,17.0,24.0,64,0.00,,---,0.07,VWS V14.01,2013-09-30 17:08:00,
2013-09-30 10:12:00,45.9,33.6,29.89,West,267,12.0,13.0,62,0.00,,---,0.07,VWS V14.01,2013-09-30 17:12:00,
2013-09-30 10:13:00,46.0,34.5,29.89,SW,229,6.0,14.0,64,0.00,,---,0.07,VWS V14.01,2013-09-30 17:13:00,
2013-09-30 10:14:00,46.0,34.1,29.89,SSW,198,26.0,30.0,63,0.00,,---,0.07,VWS V14.01,2013-09-30 17:14:00,
2013-09-30 10:17:00,45.8,33.5,29.89,SW,236,14.0,30.0,62,0.00,,---,0.07,VWS V14.01,2013-09-30 17:17:00,
2013-09-30 10:18:00,45.8,33.5,29.89,SSW,205,25.0,30.0,62,0.00,,---,0.07,VWS V14.01,2013-09-30 17:18:00,
2013-09-30 10:20:00,45.9,33.6,29.89,SW,223,20.0,30.0,62,0.00,,---,0.07,VWS V14.01,2013-09-30 17:20:00,
2013-09-30 10:21:00,46.0,33.7,29.90,SSW,196,6.0,30.0,62,0.00,,---,0.07,VWS V14.01,2013-09-30 17:21:00,
2013-09-30 10:22:00,46.0,34.1,29.90,West,271,16.0,23.0,63,0.00,,---,0.07,VWS V14.01,2013-09-30 17:22:00,
2013-09-30 10:23:00,46.0,33.3,29.90,West,264,24.0,24.0,61,0.00,,---,0.07,VWS V14.01,2013-09-30 17:23:00,
2013-09-30 10:25:00,46.0,33.3,29.90,SW,228,19.0,24.0,61,0.00,,---,0.07,VWS V14.01,2013-09-30 17:25:00,
2013-09-30 10:27:00,46.0,32.9,29.90,SW,231,23.0,29.0,60,0.00,,---,0.07,VWS V14.01,2013-09-30 17:27:00,
2013-09-30 10:28:00,45.9,33.2,29.90,SW,230,19.0,29.0,61,0.00,,---,0.07,VWS V14.01,2013-09-30 17:28:00,
2013-09-30 10:30:00,45.8,32.7,29.90,West,262,14.0,29.0,60,0.00,,---,0.07,VWS V14.01,2013-09-30 17:30:00,
2013-09-30 10:31:00,45.8,33.1,29.90,SW,234,14.0,29.0,61,0.00,,---,0.07,VWS V14.01,2013-09-30 17:31:00,
2013-09-30 10:33:00,46.1,33.8,29.90,SSW,210,16.0,17.0,62,0.00,,---,0.07,VWS V14.01,2013-09-30 17:33:00,
2013-09-30 10:34:00,46.2,34.3,29.90,SW,228,15.0,17.0,63,0.00,,---,0.07,VWS V14.01,2013-09-30 17:34:00,
2013-09-30 10:35:00,46.3,33.6,29.90,SW,217,12.0,22.0,61,0.00,,---,0.07,VWS V14.01,2013-09-30 17:35:00,
2013-09-30 10:38:00,46.4,33.7,29.90,WSW,250,24.0,30.0,61,0.00,,---,0.07,VWS V14.01,2013-09-30 17:38:00,
2013-09-30 10:39:00,46.4,33.7,29.90,SW,234,16.0,30.0,61,0.00,,---,0.07,VWS V14.01,2013-09-30 17:39:00,
2013-09-30 10:40:00,46.3,32.8,29.89,WSW,257,18.0,33.0,59,0.00,,---,0.07,VWS V14.01,2013-09-30 17:40:00,
2013-09-30 10:41:00,46.1,32.6,29.89,SW,214,10.0,33.0,59,0.00,,---,0.07,VWS V14.01,2013-09-30 17:41:00,
2013-09-30 10:44:00,46.4,33.7,29.90,West,265,17.0,20.0,61,0.00,,---,0.07,VWS V14.01,2013-09-30 17:44:00,
2013-09-30 10:46:00,46.7,34.4,29.90,SW,219,15.0,20.0,62,0.00,,---,0.07,VWS V14.01,2013-09-30 17:46:00,
2013-09-30 10:47:00,46.8,34.1,29.90,WNW,284,15.0,20.0,61,0.00,,---,0.07,VWS V14.01,2013-09-30 17:47:00,
2013-09-30 10:51:00,47.2,34.0,29.90,West,268,15.0,24.0,60,0.00,,---,0.07,VWS V14.01,2013-09-30 17:51:00,
2013-09-30 10:52:00,47.2,34.0,29.90,WSW,254,10.0,24.0,60,0.00,,---,0.07,VWS V14.01,2013-09-30 17:52:00,
2013-09-30 10:53:00,47.3,35.0,29.90,SW,223,10.0,13.0,62,0.00,,---,0.07,VWS V14.01,2013-09-30 17:53:00,
2013-09-30 10:57:00,47.3,34.5,29.90,SW,231,17.0,29.0,61,0.00,,---,0.07,VWS V14.01,2013-09-30 17:57:00,
2013-09-30 10:58:00,47.5,34.3,29.91,SW,236,9.0,29.0,60,0.00,,---,0.07,VWS V14.01,2013-09-30 17:58:00,
2013-09-30 10:59:00,47.6,34.8,29.91,SW,225,16.0,29.0,61,0.00,,---,0.07,VWS V14.01,2013-09-30 17:59:00,
2013-09-30 11:00:00,47.8,35.0,29.90,WSW,240,16.0,29.0,61,0.00,,---,0.07,VWS V14.01,2013-09-30 18:00:00,
2013-09-30 11:03:00,47.9,34.7,29.91,WSW,238,10.0,19.0,60,0.00,,---,0.07,VWS V14.01,2013-09-30 18:03:00,
2013-09-30 11:04:00,48.0,35.2,29.91,SW,215,16.0,19.0,61,0.00,,---,0.07,VWS V14.01,2013-09-30 18:04:00,
2013-09-30 11:05:00,48.1,34.5,29.90,WSW,250,19.0,27.0,59,0.00,,---,0.07,VWS V14.01,2013-09-30 18:05:00,
2013-09-30 11:09:00,47.7,34.1,29.91,NW,308,21.0,27.0,59,0.00,,---,0.07,VWS V14.01,2013-09-30 18:09:00,
2013-09-30 11:12:00,47.6,34.4,29.91,WSW,251,11.0,27.0,60,0.00,,---,0.07,VWS V14.01,2013-09-30 18:12:00,
2013-09-30 11:14:00,47.5,34.7,29.91,South,189,23.0,28.0,61,0.00,,---,0.07,VWS V14.01,2013-09-30 18:14:00,
2013-09-30 11:15:00,47.5,34.7,29.91,WSW,241,15.0,28.0,61,0.00,,---,0.07,VWS V14.01,2013-09-30 18:15:00,
2013-09-30 11:18:00,47.4,35.0,29.91,WSW,247,19.0,33.0,62,0.00,,---,0.07,VWS V14.01,2013-09-30 18:18:00,
2013-09-30 11:19:00,47.4,34.6,29.90,SW,235,28.0,33.0,61,0.00,,---,0.07,VWS V14.01,2013-09-30 18:19:00,
2013-09-30 11:21:00,47.4,35.0,29.91,SW,223,29.0,34.0,62,0.00,,---,0.07,VWS V14.01,2013-09-30 18:21:00,
2013-09-30 11:23:00,47.2,34.5,29.90,SW,221,17.0,37.0,61,0.00,,---,0.07,VWS V14.01,2013-09-30 18:23:00,
2013-09-30 11:25:00,47.4,35.0,29.90,SW,222,36.0,37.0,62,0.00,,---,0.07,VWS V14.01,2013-09-30 18:25:00,
2013-09-30 11:26:00,47.3,34.5,29.90,SW,217,23.0,37.0,61,0.01,,---,0.08,VWS V14.01,2013-09-30 18:26:00,
2013-09-30 11:27:00,47.2,34.9,29.90,WSW,252,20.0,37.0,62,0.01,,---,0.08,VWS V14.01,2013-09-30 18:27:00,
2013-09-30 11:28:00,47.2,34.9,29.90,SSW,213,33.0,37.0,62,0.01,,---,0.08,VWS V14.01,2013-09-30 18:28:00,
2013-09-30 11:30:00,47.2,34.9,29.90,WSW,254,27.0,37.0,62,0.01,,---,0.08,VWS V14.01,2013-09-30 18:30:00,
2013-09-30 11:31:00,47.2,34.9,29.90,WSW,257,26.0,37.0,62,0.01,,---,0.08,VWS V14.01,2013-09-30 18:31:00,
2013-09-30 11:34:00,47.0,35.5,29.90,SSW,204,22.0,34.0,64,0.01,,---,0.08,VWS V14.01,2013-09-30 18:34:00,
2013-09-30 11:35:00,47.2,35.7,29.89,WSW,244,16.0,34.0,64,0.01,,---,0.08,VWS V14.01,2013-09-30 18:35:00,
2013-09-30 11:37:00,47.3,35.4,29.90,SW,236,14.0,34.0,63,0.01,,---,0.08,VWS V14.01,2013-09-30 18:37:00,
2013-09-30 11:38:00,47.4,35.5,29.90,WSW,257,13.0,34.0,63,0.01,,---,0.08,VWS V14.01,2013-09-30 18:38:00,
2013-09-30 11:40:00,47.7,36.1,29.90,SW,232,15.0,34.0,64,0.01,,---,0.08,VWS V14.01,2013-09-30 18:40:00,
2013-09-30 11:45:00,47.7,35.3,29.90,SSW,211,15.0,36.0,62,0.01,,---,0.08,VWS V14.01,2013-09-30 18:45:00,
2013-09-30 11:46:00,47.7,35.3,29.90,SSW,211,13.0,36.0,62,0.01,,---,0.08,VWS V14.01,2013-09-30 18:46:00,
2013-09-30 11:47:00,47.7,35.3,29.90,SW,218,35.0,36.0,62,0.01,,---,0.08,VWS V14.01,2013-09-30 18:47:00,
2013-09-30 11:50:00,47.7,35.3,29.91,West,268,24.0,36.0,62,0.01,,---,0.08,VWS V14.01,2013-09-30 18:50:00,
2013-09-30 11:51:00,47.6,35.2,29.90,West,267,18.0,36.0,62,0.01,,---,0.08,VWS V14.01,2013-09-30 18:51:00,
2013-09-30 11:52:00,47.6,34.8,29.91,SW,221,27.0,28.0,61,0.01,,---,0.08,VWS V14.01,2013-09-30 18:52:00,
2013-09-30 11:53:00,47.4,34.2,29.90,WNW,288,15.0,35.0,60,0.01,,---,0.08,VWS V14.01,2013-09-30 18:53:00,
2013-09-30 11:57:00,47.9,35.5,29.90,SSW,211,17.0,35.0,62,0.01,,---,0.08,VWS V14.01,2013-09-30 18:57:00,
2013-09-30 11:59:00,48.2,35.4,29.90,WSW,243,15.0,35.0,61,0.01,,---,0.08,VWS V14.01,2013-09-30 18:59:00,
2013-09-30 12:00:00,48.1,34.9,29.90,WSW,247,19.0,36.0,60,0.01,,---,0.08,VWS V14.01,2013-09-30 19:00:00,
2013-09-30 12:01:00,48.1,34.5,29.90,SW,222,15.0,36.0,59,0.01,,---,0.08,VWS V14.01,2013-09-30 19:01:00,
2013-09-30 12:04:00,48.2,35.0,29.91,West,261,34.0,35.0,60,0.01,,---,0.08,VWS V14.01,2013-09-30 19:04:00,
2013-09-30 12:05:00,48.2,34.6,29.91,WSW,238,14.0,35.0,59,0.01,,---,0.08,VWS V14.01,2013-09-30 19:05:00,
2013-09-30 12:06:00,48.2,34.6,29.91,West,264,18.0,35.0,59,0.01,,---,0.08,VWS V14.01,2013-09-30 19:06:00,
2013-09-30 12:09:00,48.3,35.5,29.91,WSW,240,16.0,35.0,61,0.01,,---,0.08,VWS V14.01,2013-09-30 19:09:00,
2013-09-30 12:10:00,48.5,35.7,29.91,SW,227,6.0,35.0,61,0.01,,---,0.08,VWS V14.01,2013-09-30 19:10:00,
2013-09-30 12:11:00,48.7,35.9,29.91,WSW,256,18.0,35.0,61,0.01,,---,0.08,VWS V14.01,2013-09-30 19:11:00,
2013-09-30 12:13:00,48.9,36.1,29.91,WSW,238,17.0,21.0,61,0.01,,---,0.08,VWS V14.01,2013-09-30 19:13:00,
2013-09-30 12:14:00,49.0,35.7,29.91,SW,225,21.0,33.0,60,0.01,,---,0.08,VWS V14.01,2013-09-30 19:14:00,
2013-09-30 12:16:00,48.6,35.8,29.91,WSW,240,14.0,33.0,61,0.01,,---,0.08,VWS V14.01,2013-09-30 19:16:00,
2013-09-30 12:18:00,48.7,36.3,29.91,WSW,246,22.0,33.0,62,0.01,,---,0.08,VWS V14.01,2013-09-30 19:18:00,
2013-09-30 12:19:00,48.6,35.8,29.91,SW,221,22.0,33.0,61,0.01,,---,0.08,VWS V14.01,2013-09-30 19:19:00,
2013-09-30 12:21:00,48.6,35.8,29.91,WNW,287,22.0,33.0,61,0.01,,---,0.08,VWS V14.01,2013-09-30 19:21:00,
2013-09-30 12:23:00,48.6,35.4,29.91,WSW,242,18.0,24.0,60,0.01,,---,0.08,VWS V14.01,2013-09-30 19:23:00,
2013-09-30 12:24:00,48.6,35.4,29.92,SSW,211,15.0,24.0,60,0.01,,---,0.08,VWS V14.01,2013-09-30 19:24:00,
2013-09-30 12:25:00,48.5,35.3,29.92,SSW,195,9.0,27.0,60,0.01,,---,0.08,VWS V14.01,2013-09-30 19:25:00,
2013-09-30 12:26:00,48.5,35.7,29.92,SW,221,8.0,27.0,61,0.01,,---,0.08,VWS V14.01,2013-09-30 19:26:00,
2013-09-30 12:27:00,48.6,36.2,29.92,SSW,209,6.0,27.0,62,0.01,,---,0.08,VWS V14.01,2013-09-30 19:27:00,
2013-09-30 12:29:00,48.9,36.1,29.92,WSW,249,11.0,27.0,61,0.01,,---,0.08,VWS V14.01,2013-09-30 19:29:00,
2013-09-30 12:30:00,49.0,36.2,29.92,SW,229,13.0,27.0,61,0.01,,---,0.08,VWS V14.01,2013-09-30 19:30:00,
2013-09-30 12:32:00,49.1,36.2,29.92,South,171,11.0,27.0,61,0.01,,---,0.08,VWS V14.01,2013-09-30 19:32:00,
2013-09-30 12:33:00,49.4,36.5,29.92,SW,223,10.0,21.0,61,0.00,,---,0.08,VWS V14.01,2013-09-30 19:33:00,
2013-09-30 12:35:00,49.7,36.4,29.92,South,185,10.0,21.0,60,0.00,,---,0.08,VWS V14.01,2013-09-30 19:35:00,
2013-09-30 12:36:00,49.8,36.5,29.92,SW,236,11.0,21.0,60,0.00,,---,0.08,VWS V14.01,2013-09-30 19:36:00,
2013-09-30 12:37:00,49.9,37.0,29.92,South,184,6.0,21.0,61,0.00,,---,0.08,VWS V14.01,2013-09-30 19:37:00,
2013-09-30 12:38:00,50.0,36.2,29.92,South,182,7.0,21.0,59,0.00,,---,0.08,VWS V14.01,2013-09-30 19:38:00,
2013-09-30 12:40:00,50.3,36.5,29.92,West,279,2.0,21.0,59,0.00,,---,0.08,VWS V14.01,2013-09-30 19:40:00,
2013-09-30 12:42:00,50.2,35.6,29.92,SW,231,8.0,19.0,57,0.00,,---,0.08,VWS V14.01,2013-09-30 19:42:00,
2013-09-30 12:45:00,49.9,35.7,29.93,SW,236,13.0,27.0,58,0.00,,---,0.08,VWS V14.01,2013-09-30 19:45:00,
2013-09-30 12:46:00,49.5,34.9,29.92,SW,219,6.0,27.0,57,0.00,,---,0.08,VWS V14.01,2013-09-30 19:46:00,
2013-09-30 12:47:00,49.4,35.7,29.93,NW,304,7.0,27.0,59,0.00,,---,0.08,VWS V14.01,2013-09-30 19:47:00,
2013-09-30 12:48:00,49.3,35.6,29.93,SSW,211,12.0,27.0,59,0.00,,---,0.08,VWS V14.01,2013-09-30 19:48:00,
2013-09-30 12:50:00,49.3,35.2,29.93,NW,305,20.0,27.0,58,0.00,,---,0.08,VWS V14.01,2013-09-30 19:50:00,
2013-09-30 12:53:00,49.1,35.8,29.93,SSE,156,11.0,13.0,60,0.00,,---,0.08,VWS V14.01,2013-09-30 19:53:00,
2013-09-30 12:54:00,49.3,36.4,29.93,SW,235,26.0,26.0,61,0.00,,---,0.08,VWS V14.01,2013-09-30 19:54:00,
2013-09-30 12:57:00,48.9,35.2,29.93,WSW,251,14.0,33.0,59,0.00,,---,0.08,VWS V14.01,2013-09-30 19:57:00,
2013-09-30 12:58:00,48.8,35.1,29.93,WSW,256,19.0,33.0,59,0.00,,---,0.08,VWS V14.01,2013-09-30 19:58:00,
2013-09-30 12:59:00,48.9,35.6,29.93,South,190,9.0,33.0,60,0.00,,---,0.08,VWS V14.01,2013-09-30 19:59:00,
2013-09-30 13:00:00,49.0,36.2,29.93,SSW,195,6.0,33.0,61,0.00,,---,0.08,VWS V14.01,2013-09-30 20:00:00,
2013-09-30 13:01:00,49.2,36.3,29.93,WSW,243,4.0,33.0,61,0.00,,---,0.08,VWS V14.01,2013-09-30 20:01:00,
2013-09-30 13:03:00,49.7,36.4,29.94,South,176,11.0,22.0,60,0.00,,---,0.08,VWS V14.01,2013-09-30 20:03:00,
2013-09-30 13:05:00,49.7,36.0,29.93,SSE,159,12.0,24.0,59,0.00,,---,0.08,VWS V14.01,2013-09-30 20:05:00,
2013-09-30 13:07:00,49.7,36.4,29.94,SW,228,16.0,24.0,60,0.00,,---,0.08,VWS V14.01,2013-09-30 20:07:00,
2013-09-30 13:10:00,49.6,36.3,29.93,West,259,16.0,24.0,60,0.00,,---,0.08,VWS V14.01,2013-09-30 20:10:00,
2013-09-30 13:11:00,49.6,36.3,29.94,West,274,6.0,24.0,60,0.00,,---,0.08,VWS V14.01,2013-09-30 20:11:00,
2013-09-30 13:13:00,49.8,36.1,29.93,South,184,8.0,15.0,59,0.00,,---,0.08,VWS V14.01,2013-09-30 20:13:00,
2013-09-30 13:16:00,50.2,36.0,29.93,SSW,201,6.0,23.0,58,0.00,,---,0.08,VWS V14.01,2013-09-30 20:16:00,
2013-09-30 13:17:00,50.1,35.9,29.94,SW,225,5.0,23.0,58,0.00,,---,0.08,VWS V14.01,2013-09-30 20:17:00,
2013-09-30 13:19:00,50.3,36.5,29.94,SW,214,16.0,23.0,59,0.00,,---,0.08,VWS V14.01,2013-09-30 20:19:00,
2013-09-30 13:20:00,50.2,36.4,29.93,WNW,286,11.0,26.0,59,0.00,,---,0.08,VWS V14.01,2013-09-30 20:20:00,
2013-09-30 13:22:00,49.8,36.1,29.94,WSW,248,10.0,26.0,59,0.00,,---,0.08,VWS V14.01,2013-09-30 20:22:00,
2013-09-30 13:24:00,49.7,36.0,29.94,SW,223,21.0,24.0,59,0.00,,---,0.08,VWS V14.01,2013-09-30 20:24:00,
2013-09-30 13:25:00,49.7,36.0,29.94,SW,215,13.0,25.0,59,0.00,,---,0.08,VWS V14.01,2013-09-30 20:25:00,
2013-09-30 13:26:00,49.6,35.5,29.93,SW,227,14.0,31.0,58,0.00,,---,0.08,VWS V14.01,2013-09-30 20:26:00,
2013-09-30 13:27:00,49.5,35.3,29.94,WSW,245,5.0,31.0,58,0.00,,---,0.08,VWS V14.01,2013-09-30 20:27:00,
2013-09-30 13:30:00,49.7,36.0,29.94,SW,225,11.0,31.0,59,0.00,,---,0.08,VWS V14.01,2013-09-30 20:30:00,
2013-09-30 13:31:00,49.8,36.5,29.94,West,260,16.0,31.0,60,0.00,,---,0.08,VWS V14.01,2013-09-30 20:31:00,
2013-09-30 13:32:00,49.8,36.1,29.94,WSW,248,11.0,31.0,59,0.00,,---,0.08,VWS V14.01,2013-09-30 20:32:00,
2013-09-30 13:33:00,49.8,36.1,29.94,SW,223,6.0,18.0,59,0.00,,---,0.08,VWS V14.01,2013-09-30 20:33:00,
2013-09-30 13:36:00,50.2,36.9,29.94,SW,228,16.0,21.0,60,0.00,,---,0.08,VWS V14.01,2013-09-30 20:36:00,
2013-09-30 13:37:00,50.2,36.9,29.94,SW,231,28.0,28.0,60,0.00,,---,0.08,VWS V14.01,2013-09-30 20:37:00,
2013-09-30 13:39:00,50.2,36.0,29.94,West,261,16.0,28.0,58,0.00,,---,0.08,VWS V14.01,2013-09-30 20:39:00,
2013-09-30 13:41:00,49.9,36.2,29.94,SW,223,17.0,28.0,59,0.00,,---,0.08,VWS V14.01,2013-09-30 20:41:00,
2013-09-30 13:42:00,49.8,36.1,29.94,South,178,7.0,16.0,59,0.00,,---,0.08,VWS V14.01,2013-09-30 20:42:00,
2013-09-30 13:44:00,49.9,36.2,29.93,SSW,212,15.0,22.0,59,0.00,,---,0.08,VWS V14.01,2013-09-30 20:44:00,
2013-09-30 13:45:00,49.8,36.1,29.93,SW,221,21.0,23.0,59,0.00,,---,0.08,VWS V14.01,2013-09-30 20:45:00,
2013-09-30 13:48:00,49.8,36.9,29.94,SSW,208,17.0,25.0,61,0.00,,---,0.08,VWS V14.01,2013-09-30 20:48:00,
2013-09-30 13:49:00,49.7,36.8,29.93,SSW,210,19.0,29.0,61,0.00,,---,0.08,VWS V14.01,2013-09-30 20:49:00,
2013-09-30 13:50:00,49.6,36.7,29.94,SW,215,18.0,29.0,61,0.00,,---,0.08,VWS V14.01,2013-09-30 20:50:00,
2013-09-30 13:51:00,49.5,36.6,29.94,SSW,199,13.0,29.0,61,0.00,,---,0.08,VWS V14.01,2013-09-30 20:51:00,
2013-09-30 13:54:00,49.1,36.7,29.94,SSW,209,13.0,25.0,62,0.00,,---,0.08,VWS V14.01,2013-09-30 20:54:00,
2013-09-30 13:55:00,49.1,36.7,29.94,SSW,210,15.0,25.0,62,0.00,,---,0.08,VWS V14.01,2013-09-30 20:55:00,
2013-09-30 13:56:00,49.1,36.7,29.94,SW,221,12.0,25.0,62,0.00,,---,0.08,VWS V14.01,2013-09-30 20:56:00,
2013-09-30 14:00:00,49.6,37.1,29.94,SSW,194,11.0,27.0,62,0.00,,---,0.08,VWS V14.01,2013-09-30 21:00:00,
2013-09-30 14:01:00,49.6,37.1,29.94,SW,221,8.0,29.0,62,0.00,,---,0.08,VWS V14.01,2013-09-30 21:01:00,
2013-09-30 14:02:00,49.6,37.1,29.95,SW,228,10.0,16.0,62,0.00,,---,0.08,VWS V14.01,2013-09-30 21:02:00,
2013-09-30 14:04:00,49.6,37.5,29.95,SSW,204,7.0,18.0,63,0.00,,---,0.08,VWS V14.01,2013-09-30 21:04:00,
2013-09-30 14:06:00,49.7,37.2,29.95,SW,225,14.0,21.0,62,0.00,,---,0.08,VWS V14.01,2013-09-30 21:06:00,
2013-09-30 14:07:00,49.7,37.2,29.95,SW,230,11.0,21.0,62,0.00,,---,0.08,VWS V14.01,2013-09-30 21:07:00,
2013-09-30 14:10:00,49.7,37.2,29.95,SSW,208,8.0,21.0,62,0.00,,---,0.08,VWS V14.01,2013-09-30 21:10:00,
2013-09-30 14:11:00,50.0,37.5,29.95,SSW,202,6.0,21.0,62,0.00,,---,0.08,VWS V14.01,2013-09-30 21:11:00,
2013-09-30 14:12:00,50.0,37.5,29.95,South,188,10.0,15.0,62,0.00,,---,0.08,VWS V14.01,2013-09-30 21:12:00,
2013-09-30 14:14:00,49.9,37.0,29.95,SSW,213,8.0,22.0,61,0.00,,---,0.08,VWS V14.01,2013-09-30 21:14:00,
2013-09-30 14:17:00,49.6,36.7,29.95,SW,214,9.0,22.0,61,0.00,,---,0.08,VWS V14.01,2013-09-30 21:17:00,
2013-09-30 14:18:00,49.6,37.1,29.95,South,181,12.0,22.0,62,0.00,,---,0.08,VWS V14.01,2013-09-30 21:18:00,
2013-09-30 14:19:00,49.5,36.6,29.94,SW,227,19.0,22.0,61,0.00,,---,0.08,VWS V14.01,2013-09-30 21:19:00,
2013-09-30 14:21:00,49.2,36.3,29.95,WSW,240,15.0,32.0,61,0.00,,---,0.08,VWS V14.01,2013-09-30 21:21:00,
2013-09-30 14:22:00,49.1,37.1,29.95,South,184,10.0,18.0,63,0.00,,---,0.08,VWS V14.01,2013-09-30 21:22:00,
2013-09-30 14:24:00,49.3,37.2,29.95,SSW,206,12.0,19.0,63,0.00,,---,0.08,VWS V14.01,2013-09-30 21:24:00,
2013-09-30 14:25:00,49.5,37.8,29.95,SSW,205,10.0,19.0,64,0.00,,---,0.08,VWS V14.01,2013-09-30 21:25:00,
2013-09-30 14:26:00,49.6,37.5,29.95,SSW,202,10.0,21.0,63,0.00,,---,0.08,VWS V14.01,2013-09-30 21:26:00,
2013-09-30 14:28:00,49.3,37.2,29.95,South,178,9.0,22.0,63,0.00,,---,0.08,VWS V14.01,2013-09-30 21:28:00,
2013-09-30 14:30:00,49.1,37.5,29.95,SSW,196,7.0,22.0,64,0.00,,---,0.08,VWS V14.01,2013-09-30 21:30:00,
2013-09-30 14:31:00,49.1,37.5,29.95,SSW,194,15.0,22.0,64,0.00,,---,0.08,VWS V14.01,2013-09-30 21:31:00,
2013-09-30 14:32:00,49.1,37.9,29.95,West,267,9.0,10.0,65,0.00,,---,0.08,VWS V14.01,2013-09-30 21:32:00,
2013-09-30 14:33:00,49.3,38.0,29.96,South,184,9.0,14.0,65,0.00,,---,0.08,VWS V14.01,2013-09-30 21:33:00,
2013-09-30 14:36:00,49.2,37.6,29.96,SSW,212,5.0,17.0,64,0.00,,---,0.08,VWS V14.01,2013-09-30 21:36:00,
2013-09-30 14:37:00,49.1,37.1,29.96,South,189,13.0,17.0,63,0.00,,---,0.08,VWS V14.01,2013-09-30 21:37:00,
2013-09-30 14:38:00,49.0,37.0,29.96,WSW,239,13.0,18.0,63,0.00,,---,0.08,VWS V14.01,2013-09-30 21:38:00,
2013-09-30 14:39:00,48.8,37.2,29.96,South,188,5.0,18.0,64,0.00,,---,0.08,VWS V14.01,2013-09-30 21:39:00,
2013-09-30 14:41:00,48.8,37.2,29.96,SW,225,9.0,18.0,64,0.00,,---,0.08,VWS V14.01,2013-09-30 21:41:00,
2013-09-30 14:43:00,48.9,37.7,29.96,South,178,13.0,20.0,65,0.00,,---,0.08,VWS V14.01,2013-09-30 21:43:00,
2013-09-30 14:44:00,49.0,37.8,29.96,West,274,4.0,20.0,65,0.00,,---,0.08,VWS V14.01,2013-09-30 21:44:00,
2013-09-30 14:48:00,49.0,37.0,29.96,SSW,209,9.0,22.0,63,0.00,,---,0.08,VWS V14.01,2013-09-30 21:48:00,
2013-09-30 14:49:00,48.9,36.9,29.96,South,184,4.0,22.0,63,0.00,,---,0.08,VWS V14.01,2013-09-30 21:49:00,
2013-09-30 14:50:00,48.9,37.3,29.96,SSW,209,7.0,22.0,64,0.00,,---,0.08,VWS V14.01,2013-09-30 21:50:00,
2013-09-30 14:54:00,48.8,37.2,29.96,SW,232,16.0,24.0,64,0.00,,---,0.08,VWS V14.01,2013-09-30 21:54:00,
2013-09-30 14:55:00,48.8,37.2,29.96,West,264,15.0,24.0,64,0.00,,---,0.08,VWS V14.01,2013-09-30 21:55:00,
2013-09-30 14:56:00,48.9,37.7,29.96,West,279,15.0,24.0,65,0.00,,---,0.08,VWS V14.01,2013-09-30 21:56:00,
2013-09-30 14:58:00,48.9,37.3,29.96,SSW,210,9.0,24.0,64,0.00,,---,0.08,VWS V14.01,2013-09-30 21:58:00,
2013-09-30 15:00:00,48.9,36.5,29.95,West,259,8.0,24.0,62,0.00,,---,0.08,VWS V14.01,2013-09-30 22:00:00,
2013-09-30 15:01:00,48.9,37.3,29.95,WSW,245,16.0,24.0,64,0.00,,---,0.08,VWS V14.01,2013-09-30 22:01:00,
2013-09-30 15:03:00,48.8,36.8,29.96,WSW,252,10.0,23.0,63,0.00,,---,0.08,VWS V14.01,2013-09-30 22:03:00,
2013-09-30 15:05:00,48.9,37.3,29.96,SSW,209,6.0,23.0,64,0.00,,---,0.08,VWS V14.01,2013-09-30 22:05:00,
2013-09-30 15:06:00,49.0,37.8,29.95,South,170,24.0,24.0,65,0.00,,---,0.08,VWS V14.01,2013-09-30 22:06:00,
2013-09-30 15:07:00,49.1,37.5,29.96,SSW,206,14.0,24.0,64,0.00,,---,0.08,VWS V14.01,2013-09-30 22:07:00,
2013-09-30 15:09:00,49.1,37.5,29.96,WSW,242,11.0,24.0,64,0.00,,---,0.08,VWS V14.01,2013-09-30 22:09:00,
2013-09-30 15:10:00,49.0,37.4,29.95,SSW,204,23.0,28.0,64,0.00,,---,0.08,VWS V14.01,2013-09-30 22:10:00,
2013-09-30 15:11:00,49.1,37.5,29.96,SW,221,12.0,28.0,64,0.00,,---,0.08,VWS V14.01,2013-09-30 22:11:00,
2013-09-30 15:13:00,49.4,38.1,29.96,SW,222,10.0,12.0,65,0.00,,---,0.08,VWS V14.01,2013-09-30 22:13:00,
2013-09-30 15:14:00,49.6,37.9,29.96,SSW,195,5.0,12.0,64,0.00,,---,0.08,VWS V14.01,2013-09-30 22:14:00,
2013-09-30 15:16:00,49.6,37.1,29.96,SW,223,10.0,16.0,62,0.00,,---,0.08,VWS V14.01,2013-09-30 22:16:00,
2013-09-30 15:17:00,49.5,37.4,29.96,WNW,283,14.0,16.0,63,0.00,,---,0.08,VWS V14.01,2013-09-30 22:17:00,
2013-09-30 15:18:00,49.4,37.8,29.96,WSW,238,11.0,21.0,64,0.00,,---,0.08,VWS V14.01,2013-09-30 22:18:00,
2013-09-30 15:19:00,49.4,37.8,29.96,SW,227,9.0,21.0,64,0.00,,---,0.08,VWS V14.01,2013-09-30 22:19:00,
2013-09-30 15:21:00,49.3,37.7,29.96,South,174,11.0,21.0,64,0.00,,---,0.08,VWS V14.01,2013-09-30 22:21:00,
2013-09-30 15:22:00,49.4,38.1,29.96,SW,217,9.0,9.0,65,0.00,,---,0.08,VWS V14.01,2013-09-30 22:22:00,
2013-09-30 15:23:00,49.4,37.3,29.96,SW,229,7.0,13.0,63,0.00,,---,0.08,VWS V14.01,2013-09-30 22:23:00,
2013-09-30 15:24:00,49.5,37.4,29.96,SW,221,8.0,13.0,63,0.00,,---,0.08,VWS V14.01,2013-09-30 22:24:00,
2013-09-30 15:25:00,49.5,37.4,29.96,SSW,213,8.0,19.0,63,0.00,,---,0.08,VWS V14.01,2013-09-30 22:25:00,
2013-09-30 15:26:00,49.5,37.8,29.96,West,277,10.0,19.0,64,0.00,,---,0.08,VWS V14.01,2013-09-30 22:26:00,
2013-09-30 15:28:00,49.6,37.5,29.97,WSW,244,9.0,24.0,63,0.00,,---,0.08,VWS V14.01,2013-09-30 22:28:00,
2013-09-30 15:30:00,49.9,37.8,29.96,SSW,213,13.0,24.0,63,0.00,,---,0.08,VWS V14.01,2013-09-30 22:30:00,
2013-09-30 15:31:00,50.0,37.9,29.96,WSW,256,11.0,24.0,63,0.00,,---,0.08,VWS V14.01,2013-09-30 22:31:00,
2013-09-30 15:32:00,50.0,37.5,29.96,SW,216,19.0,25.0,62,0.00,,---,0.08,VWS V14.01,2013-09-30 22:32:00,
2013-09-30 15:33:00,49.9,37.4,29.97,SW,219,13.0,24.0,62,0.00,,---,0.08,VWS V14.01,2013-09-30 22:33:00,
2013-09-30 15:35:00,49.7,37.6,29.97,SSW,210,15.0,24.0,63,0.00,,---,0.08,VWS V14.01,2013-09-30 22:35:00,
2013-09-30 15:37:00,49.5,37.4,29.97,West,267,19.0,24.0,63,0.00,,---,0.08,VWS V14.01,2013-09-30 22:37:00,
2013-09-30 15:38:00,49.4,37.3,29.97,WSW,255,15.0,24.0,63,0.00,,---,0.08,VWS V14.01,2013-09-30 22:38:00,
2013-09-30 15:39:00,49.2,37.2,29.96,SW,236,7.0,24.0,63,0.00,,---,0.08,VWS V14.01,2013-09-30 22:39:00,
2013-09-30 15:40:00,49.2,37.2,29.96,SW,231,12.0,24.0,63,0.00,,---,0.08,VWS V14.01,2013-09-30 22:40:00,
2013-09-30 15:41:00,49.4,37.8,29.96,SW,223,2.0,24.0,64,0.00,,---,0.08,VWS V14.01,2013-09-30 22:41:00,
2013-09-30 15:42:00,49.5,38.2,29.96,West,263,4.0,12.0,65,0.00,,---,0.08,VWS V14.01,2013-09-30 22:42:00,
2013-09-30 15:44:00,49.8,38.1,29.96,SSW,211,8.0,13.0,64,0.00,,---,0.08,VWS V14.01,2013-09-30 22:44:00,
2013-09-30 15:45:00,49.9,38.2,29.96,WSW,247,3.0,13.0,64,0.00,,---,0.08,VWS V14.01,2013-09-30 22:45:00,
2013-09-30 15:47:00,50.1,37.6,29.96,SSE,164,10.0,15.0,62,0.00,,---,0.08,VWS V14.01,2013-09-30 22:47:00,
2013-09-30 15:49:00,49.9,37.4,29.96,West,261,7.0,15.0,62,0.00,,---,0.08,VWS V14.01,2013-09-30 22:49:00,
2013-09-30 15:50:00,50.0,37.5,29.96,WSW,251,10.0,15.0,62,0.00,,---,0.08,VWS V14.01,2013-09-30 22:50:00,
2013-09-30 15:52:00,50.1,37.6,29.96,SSW,204,12.0,17.0,62,0.00,,---,0.08,VWS V14.01,2013-09-30 22:52:00,
2013-09-30 15:53:00,50.0,37.1,29.96,SSE,166,10.0,15.0,61,0.00,,---,0.08,VWS V14.01,2013-09-30 22:53:00,
2013-09-30 15:54:00,49.9,37.4,29.96,SW,236,3.0,15.0,62,0.00,,---,0.08,VWS V14.01,2013-09-30 22:54:00,
2013-09-30 15:57:00,49.6,37.1,29.96,WSW,240,4.0,18.0,62,0.00,,---,0.08,VWS V14.01,2013-09-30 22:57:00,
2013-09-30 15:59:00,49.5,37.4,29.96,West,259,8.0,18.0,63,0.00,,---,0.08,VWS V14.01,2013-09-30 22:59:00,
2013-09-30 16:02:00,50.0,36.7,29.96,SSW,197,2.0,18.0,60,0.00,,---,0.08,VWS V14.01,2013-09-30 23:02:00,
2013-09-30 16:04:00,50.4,37.9,29.96,West,271,2.0,6.0,62,0.00,,---,0.08,VWS V14.01,2013-09-30 23:04:00,
2013-09-30 16:07:00,50.6,37.2,29.96,SSW,213,14.0,18.0,60,0.00,,---,0.08,VWS V14.01,2013-09-30 23:07:00,
2013-09-30 16:08:00,50.4,37.0,29.96,SW,232,12.0,18.0,60,0.00,,---,0.08,VWS V14.01,2013-09-30 23:08:00,
2013-09-30 16:10:00,50.0,36.7,29.96,WSW,250,13.0,23.0,60,0.00,,---,0.08,VWS V14.01,2013-09-30 23:10:00,
2013-09-30 16:11:00,49.9,37.0,29.96,NW,304,7.0,23.0,61,0.00,,---,0.08,VWS V14.01,2013-09-30 23:11:00,
2013-09-30 16:12:00,49.9,37.0,29.96,SSW,206,6.0,13.0,61,0.00,,---,0.08,VWS V14.01,2013-09-30 23:12:00,
2013-09-30 16:13:00,50.0,37.1,29.96,SSW,203,5.0,13.0,61,0.00,,---,0.08,VWS V14.01,2013-09-30 23:13:00,
2013-09-30 16:17:00,50.2,36.9,29.96,West,267,9.0,20.0,60,0.00,,---,0.08,VWS V14.01,2013-09-30 23:17:00,
2013-09-30 16:18:00,50.1,36.8,29.96,West,267,6.0,20.0,60,0.00,,---,0.08,VWS V14.01,2013-09-30 23:18:00,
2013-09-30 16:21:00,50.4,37.5,29.96,SE,128,13.0,20.0,61,0.00,,---,0.08,VWS V14.01,2013-09-30 23:21:00,
2013-09-30 16:22:00,50.6,37.7,29.95,SSW,200,12.0,15.0,61,0.00,,---,0.08,VWS V14.01,2013-09-30 23:22:00,
2013-09-30 16:23:00,50.6,37.7,29.96,WSW,250,14.0,22.0,61,0.00,,---,0.08,VWS V14.01,2013-09-30 23:23:00,
2013-09-30 16:26:00,51.0,38.0,29.96,WSW,255,10.0,22.0,61,0.00,,---,0.08,VWS V14.01,2013-09-30 23:26:00,
2013-09-30 16:27:00,50.9,37.5,29.96,SW,214,9.0,22.0,60,0.00,,---,0.08,VWS V14.01,2013-09-30 23:27:00,
2013-09-30 16:28:00,50.9,37.5,29.96,SSW,213,9.0,22.0,60,0.00,,---,0.08,VWS V14.01,2013-09-30 23:28:00,
2013-09-30 16:30:00,50.5,37.6,29.96,SSW,207,6.0,22.0,61,0.00,,---,0.08,VWS V14.01,2013-09-30 23:30:00,
2013-09-30 16:32:00,50.3,37.4,29.95,SW,236,6.0,11.0,61,0.00,,---,0.08,VWS V14.01,2013-09-30 23:32:00,
2013-09-30 16:33:00,50.3,37.8,29.95,SSW,207,6.0,11.0,62,0.00,,---,0.08,VWS V14.01,2013-09-30 23:33:00,
2013-09-30 16:34:00,50.4,38.3,29.96,West,280,11.0,14.0,63,0.00,,---,0.08,VWS V14.01,2013-09-30 23:34:00,
2013-09-30 16:37:00,50.1,37.6,29.96,SW,220,6.0,16.0,62,0.00,,---,0.08,VWS V14.01,2013-09-30 23:37:00,
2013-09-30 16:38:00,50.1,38.0,29.96,SW,217,8.0,16.0,63,0.00,,---,0.08,VWS V14.01,2013-09-30 23:38:00,
2013-09-30 16:39:00,49.9,37.8,29.96,SW,232,21.0,21.0,63,0.00,,---,0.08,VWS V14.01,2013-09-30 23:39:00,
2013-09-30 16:41:00,49.5,37.4,29.96,SSW,205,13.0,21.0,63,0.00,,---,0.08,VWS V14.01,2013-09-30 23:41:00,
2013-09-30 16:43:00,49.2,38.0,29.96,WSW,253,11.0,19.0,65,0.00,,---,0.08,VWS V14.01,2013-09-30 23:43:00,
2013-09-30 16:44:00,49.2,38.0,29.96,West,263,9.0,19.0,65,0.00,,---,0.08,VWS V14.01,2013-09-30 23:44:00,
2013-09-30 16:47:00,49.1,37.9,29.96,WSW,250,14.0,19.0,65,0.00,,---,0.08,VWS V14.01,2013-09-30 23:47:00,
2013-09-30 16:48:00,49.1,37.9,29.96,SW,235,16.0,19.0,65,0.00,,---,0.08,VWS V14.01,2013-09-30 23:48:00,
2013-09-30 16:50:00,48.9,37.7,29.96,SW,219,9.0,19.0,65,0.00,,---,0.08,VWS V14.01,2013-09-30 23:50:00,
2013-09-30 16:53:00,48.8,38.0,29.96,SW,234,7.0,11.0,66,0.00,,---,0.08,VWS V14.01,2013-09-30 23:53:00,
2013-09-30 16:54:00,49.0,37.8,29.96,SW,227,16.0,22.0,65,0.00,,---,0.08,VWS V14.01,2013-09-30 23:54:00,
2013-09-30 16:55:00,49.1,37.9,29.96,SW,236,5.0,22.0,65,0.00,,---,0.08,VWS V14.01,2013-09-30 23:55:00,
2013-09-30 16:56:00,49.2,38.3,29.96,SW,217,12.0,22.0,66,0.00,,---,0.08,VWS V14.01,2013-09-30 23:56:00,
2013-09-30 16:57:00,49.4,38.1,29.96,SW,220,12.0,22.0,65,0.00,,---,0.08,VWS V14.01,2013-09-30 23:57:00,
2013-09-30 17:00:00,49.6,38.3,29.95,SW,227,6.0,22.0,65,0.00,,---,0.08,VWS V14.01,2013-10-01 00:00:00,
2013-09-30 17:01:00,49.7,38.4,29.95,WSW,244,7.0,22.0,65,0.00,,---,0.08,VWS V14.01,2013-10-01 00:01:00,
2013-09-30 17:02:00,49.9,38.6,29.96,WSW,238,11.0,12.0,65,0.00,,---,0.08,VWS V14.01,2013-10-01 00:02:00,
2013-09-30 17:03:00,49.9,38.2,29.96,SSW,210,12.0,22.0,64,0.00,,---,0.08,VWS V14.01,2013-10-01 00:03:00,
2013-09-30 17:05:00,49.6,37.9,29.96,WSW,239,14.0,26.0,64,0.00,,---,0.08,VWS V14.01,2013-10-01 00:05:00,
2013-09-30 17:06:00,49.5,37.8,29.96,WSW,254,14.0,26.0,64,0.00,,---,0.08,VWS V14.01,2013-10-01 00:06:00,
2013-09-30 17:07:00,49.5,38.2,29.96,WSW,248,9.0,26.0,65,0.00,,---,0.08,VWS V14.01,2013-10-01 00:07:00,
2013-09-30 17:10:00,49.2,37.6,29.96,West,265,16.0,26.0,64,0.00,,---,0.08,VWS V14.01,2013-10-01 00:10:00,
2013-09-30 17:11:00,49.1,37.1,29.96,WSW,250,13.0,26.0,63,0.00,,---,0.08,VWS V14.01,2013-10-01 00:11:00,
2013-09-30 17:12:00,49.2,37.2,29.96,SW,232,13.0,26.0,63,0.00,,---,0.08,VWS V14.01,2013-10-01 00:12:00,
2013-09-30 17:14:00,49.1,37.1,29.96,WSW,254,8.0,16.0,63,0.00,,---,0.08,VWS V14.01,2013-10-01 00:14:00,
2013-09-30 17:15:00,49.3,37.2,29.96,West,265,10.0,16.0,63,0.00,,---,0.08,VWS V14.01,2013-10-01 00:15:00,
2013-09-30 17:17:00,49.4,37.8,29.96,SW,224,16.0,24.0,64,0.00,,---,0.08,VWS V14.01,2013-10-01 00:17:00,
2013-09-30 17:20:00,49.6,37.5,29.96,West,275,17.0,24.0,63,0.00,,---,0.08,VWS V14.01,2013-10-01 00:20:00,
2013-09-30 17:21:00,49.5,37.4,29.96,WSW,251,19.0,24.0,63,0.00,,---,0.08,VWS V14.01,2013-10-01 00:21:00,
2013-09-30 17:22:00,49.5,37.4,29.96,SW,223,12.0,20.0,63,0.00,,---,0.08,VWS V14.01,2013-10-01 00:22:00,
2013-09-30 17:23:00,49.5,37.4,29.96,SW,236,14.0,20.0,63,0.00,,---,0.08,VWS V14.01,2013-10-01 00:23:00,
2013-09-30 17:26:00,49.5,37.4,29.96,SW,234,11.0,21.0,63,0.00,,---,0.08,VWS V14.01,2013-10-01 00:26:00,
2013-09-30 17:27:00,49.5,37.4,29.96,WSW,239,14.0,21.0,63,0.00,,---,0.08,VWS V14.01,2013-10-01 00:27:00,
2013-09-30 17:28:00,49.5,37.0,29.96,SW,224,11.0,21.0,62,0.00,,---,0.08,VWS V14.01,2013-10-01 00:28:00,
2013-09-30 17:29:00,49.5,37.0,29.96,WSW,248,12.0,21.0,62,0.00,,---,0.08,VWS V14.01,2013-10-01 00:29:00,
2013-09-30 17:30:00,49.4,36.9,29.96,SSW,204,9.0,22.0,62,0.00,,---,0.08,VWS V14.01,2013-10-01 00:30:00,
2013-09-30 17:32:00,49.4,37.3,29.96,SSW,209,7.0,22.0,63,0.00,,---,0.08,VWS V14.01,2013-10-01 00:32:00,
2013-09-30 17:34:00,49.4,37.3,29.96,SW,217,13.0,18.0,63,0.00,,---,0.08,VWS V14.01,2013-10-01 00:34:00,
2013-09-30 17:35:00,49.2,36.8,29.96,SW,232,16.0,20.0,62,0.00,,---,0.08,VWS V14.01,2013-10-01 00:35:00,
2013-09-30 17:36:00,49.2,36.8,29.95,SW,223,11.0,20.0,62,0.00,,---,0.08,VWS V14.01,2013-10-01 00:36:00,
2013-09-30 17:37:00,49.1,37.1,29.95,WSW,245,12.0,20.0,63,0.00,,---,0.08,VWS V14.01,2013-10-01 00:37:00,
2013-09-30 17:38:00,49.1,37.1,29.95,SW,220,10.0,20.0,63,0.00,,---,0.08,VWS V14.01,2013-10-01 00:38:00,
2013-09-30 17:40:00,49.0,37.4,29.96,WSW,237,7.0,20.0,64,0.00,,---,0.08,VWS V14.01,2013-10-01 00:40:00,
2013-09-30 17:41:00,49.1,37.5,29.95,WNW,284,14.0,20.0,64,0.00,,---,0.08,VWS V14.01,2013-10-01 00:41:00,
2013-09-30 17:44:00,49.0,37.4,29.95,SSW,210,11.0,20.0,64,0.00,,---,0.08,VWS V14.01,2013-10-01 00:44:00,
2013-09-30 17:45:00,48.9,37.3,29.95,WSW,250,12.0,20.0,64,0.00,,---,0.08,VWS V14.01,2013-10-01 00:45:00,
2013-09-30 17:48:00,48.8,37.6,29.95,West,264,8.0,20.0,65,0.00,,---,0.08,VWS V14.01,2013-10-01 00:48:00,
2013-09-30 17:49:00,48.8,37.6,29.95,WSW,250,14.0,20.0,65,0.00,,---,0.08,VWS V14.01,2013-10-01 00:49:00,
2013-09-30 17:52:00,48.3,37.1,29.95,WSW,251,16.0,21.0,65,0.00,,---,0.08,VWS V14.01,2013-10-01 00:52:00,
2013-09-30 17:53:00,48.3,37.5,29.95,West,267,10.0,21.0,66,0.00,,---,0.08,VWS V14.01,2013-10-01 00:53:00,
2013-09-30 17:54:00,48.2,37.4,29.95,West,269,14.0,22.0,66,0.00,,---,0.08,VWS V14.01,2013-10-01 00:54:00,
2013-09-30 17:56:00,48.1,37.3,29.95,SSW,203,12.0,23.0,66,0.00,,---,0.08,VWS V14.01,2013-10-01 00:56:00,
2013-09-30 17:57:00,48.1,37.7,29.95,SW,235,17.0,23.0,67,0.00,,---,0.08,VWS V14.01,2013-10-01 00:57:00,
2013-09-30 18:01:00,48.1,37.7,29.95,WSW,237,15.0,23.0,67,0.00,,---,0.08,VWS V14.01,2013-10-01 01:01:00,
2013-09-30 18:02:00,48.0,37.6,29.95,West,265,11.0,23.0,67,0.00,,---,0.08,VWS V14.01,2013-10-01 01:02:00,
2013-09-30 18:03:00,48.0,38.0,29.95,WSW,249,15.0,18.0,68,0.00,,---,0.08,VWS V14.01,2013-10-01 01:03:00,
2013-09-30 18:06:00,47.8,37.8,29.95,WSW,249,16.0,21.0,68,0.00,,---,0.08,VWS V14.01,2013-10-01 01:06:00,
2013-09-30 18:07:00,47.8,37.8,29.95,WSW,242,15.0,21.0,68,0.00,,---,0.08,VWS V14.01,2013-10-01 01:07:00,
2013-09-30 18:08:00,47.6,37.6,29.95,WSW,244,10.0,21.0,68,0.00,,---,0.08,VWS V14.01,2013-10-01 01:08:00,
2013-09-30 18:09:00,47.5,37.5,29.95,WSW,246,10.0,21.0,68,0.00,,---,0.08,VWS V14.01,2013-10-01 01:09:00,
2013-09-30 18:12:00,47.2,37.9,29.95,WSW,251,14.0,21.0,70,0.00,,---,0.08,VWS V14.01,2013-10-01 01:12:00,
2013-09-30 18:13:00,47.0,37.7,29.95,SW,221,12.0,18.0,70,0.00,,---,0.08,VWS V14.01,2013-10-01 01:13:00,
2013-09-30 18:15:00,46.9,37.6,29.95,SW,234,17.0,19.0,70,0.00,,---,0.08,VWS V14.01,2013-10-01 01:15:00,
2013-09-30 18:16:00,46.9,37.6,29.95,WSW,254,27.0,27.0,70,0.00,,---,0.08,VWS V14.01,2013-10-01 01:16:00,
2013-09-30 18:17:00,46.8,37.5,29.95,WSW,256,9.0,27.0,70,0.00,,---,0.08,VWS V14.01,2013-10-01 01:17:00,
2013-09-30 18:18:00,46.8,37.5,29.95,WSW,244,11.0,27.0,70,0.00,,---,0.08,VWS V14.01,2013-10-01 01:18:00,
2013-09-30 18:20:00,46.7,37.5,29.95,West,266,12.0,27.0,70,0.00,,---,0.08,VWS V14.01,2013-10-01 01:20:00,
2013-09-30 18:22:00,46.7,37.5,29.95,SW,230,22.0,22.0,70,0.00,,---,0.08,VWS V14.01,2013-10-01 01:22:00,
2013-09-30 18:23:00,46.6,37.3,29.95,SSW,213,14.0,26.0,70,0.00,,---,0.08,VWS V14.01,2013-10-01 01:23:00,
2013-09-30 18:24:00,46.6,37.7,29.95,SW,233,12.0,26.0,71,0.00,,---,0.08,VWS V14.01,2013-10-01 01:24:00,
2013-09-30 18:25:00,46.5,37.6,29.95,WNW,288,10.0,26.0,71,0.00,,---,0.08,VWS V14.01,2013-10-01 01:25:00,
2013-09-30 18:27:00,46.5,37.6,29.95,WSW,238,10.0,26.0,71,0.00,,---,0.08,VWS V14.01,2013-10-01 01:27:00,
2013-09-30 18:28:00,46.4,37.5,29.95,West,269,11.0,26.0,71,0.00,,---,0.08,VWS V14.01,2013-10-01 01:28:00,
2013-09-30 18:30:00,46.3,37.4,29.95,SW,232,5.0,26.0,71,0.00,,---,0.08,VWS V14.01,2013-10-01 01:30:00,
2013-09-30 18:32:00,46.3,37.4,29.95,WSW,238,9.0,26.0,71,0.00,,---,0.08,VWS V14.01,2013-10-01 01:32:00,
2013-09-30 18:33:00,46.3,37.4,29.95,West,261,15.0,18.0,71,0.00,,---,0.08,VWS V14.01,2013-10-01 01:33:00,
2013-09-30 18:36:00,46.3,37.1,29.95,SW,233,14.0,23.0,70,0.00,,---,0.08,VWS V14.01,2013-10-01 01:36:00,
2013-09-30 18:37:00,46.2,37.3,29.95,SW,235,5.0,23.0,71,0.00,,---,0.08,VWS V14.01,2013-10-01 01:37:00,
2013-09-30 18:39:00,46.1,37.2,29.95,SW,215,8.0,23.0,71,0.00,,---,0.08,VWS V14.01,2013-10-01 01:39:00,
2013-09-30 18:40:00,46.1,37.2,29.95,SW,217,10.0,23.0,71,0.00,,---,0.08,VWS V14.01,2013-10-01 01:40:00,
2013-09-30 18:41:00,46.1,37.2,29.95,SW,236,7.0,23.0,71,0.00,,---,0.08,VWS V14.01,2013-10-01 01:41:00,
2013-09-30 18:42:00,46.0,37.5,29.95,SW,217,5.0,12.0,72,0.00,,---,0.08,VWS V14.01,2013-10-01 01:42:00,
2013-09-30 18:44:00,45.9,37.4,29.95,SW,225,11.0,13.0,72,0.00,,---,0.08,VWS V14.01,2013-10-01 01:44:00,
2013-09-30 18:46:00,45.8,37.3,29.95,SW,219,5.0,14.0,72,0.00,,---,0.08,VWS V14.01,2013-10-01 01:46:00,
2013-09-30 18:47:00,45.8,37.3,29.95,SW,232,10.0,14.0,72,0.00,,---,0.08,VWS V14.01,2013-10-01 01:47:00,
2013-09-30 18:49:00,45.7,37.2,29.95,WSW,240,12.0,14.0,72,0.00,,---,0.08,VWS V14.01,2013-10-01 01:49:00,
2013-09-30 18:52:00,45.7,36.8,29.95,SW,236,18.0,21.0,71,0.00,,---,0.08,VWS V14.01,2013-10-01 01:52:00,
2013-09-30 18:53:00,45.8,36.6,29.95,SSW,202,4.0,18.0,70,0.00,,---,0.08,VWS V14.01,2013-10-01 01:53:00,
2013-09-30 18:56:00,45.9,36.7,29.95,WSW,248,4.0,19.0,70,0.00,,---,0.08,VWS V14.01,2013-10-01 01:56:00,
2013-09-30 18:57:00,45.8,36.2,29.95,SSW,204,10.0,19.0,69,0.00,,---,0.08,VWS V14.01,2013-10-01 01:57:00,
2013-09-30 18:58:00,45.9,36.7,29.95,SW,227,7.0,19.0,70,0.00,,---,0.08,VWS V14.01,2013-10-01 01:58:00,
2013-09-30 19:04:00,45.8,36.6,29.96,SW,232,3.0,16.0,70,0.00,,---,0.08,VWS V14.01,2013-10-01 02:04:00,
2013-09-30 19:05:00,45.7,36.1,29.96,SSW,209,14.0,16.0,69,0.00,,---,0.08,VWS V14.01,2013-10-01 02:05:00,
2013-09-30 19:06:00,45.7,36.1,29.96,SW,222,7.0,16.0,69,0.00,,---,0.08,VWS V14.01,2013-10-01 02:06:00,
2013-09-30 19:10:00,45.6,36.4,29.96,SSW,196,7.0,17.0,70,0.00,,---,0.08,VWS V14.01,2013-10-01 02:10:00,
2013-09-30 19:11:00,45.6,36.4,29.96,SSW,192,4.0,17.0,70,0.00,,---,0.08,VWS V14.01,2013-10-01 02:11:00,
2013-09-30 19:12:00,45.6,36.4,29.96,SSW,207,7.0,17.0,70,0.00,,---,0.08,VWS V14.01,2013-10-01 02:12:00,
2013-09-30 19:13:00,45.5,36.3,29.96,SSW,198,12.0,15.0,70,0.00,,---,0.08,VWS V14.01,2013-10-01 02:13:00,
2013-09-30 19:16:00,45.5,36.3,29.96,SW,219,4.0,15.0,70,0.00,,---,0.08,VWS V14.01,2013-10-01 02:16:00,
2013-09-30 19:18:00,45.5,36.3,29.96,South,180,7.0,15.0,70,0.00,,---,0.08,VWS V14.01,2013-10-01 02:18:00,
2013-09-30 19:19:00,45.4,36.2,29.96,SW,219,8.0,15.0,70,0.00,,---,0.08,VWS V14.01,2013-10-01 02:19:00,
2013-09-30 19:20:00,45.4,36.2,29.96,SSW,213,15.0,15.0,70,0.00,,---,0.08,VWS V14.01,2013-10-01 02:20:00,
2013-09-30 19:21:00,45.4,36.2,29.96,SE,136,11.0,15.0,70,0.00,,---,0.08,VWS V14.01,2013-10-01 02:21:00,
2013-09-30 19:25:00,45.4,36.2,29.97,SSW,203,4.0,10.0,70,0.00,,---,0.08,VWS V14.01,2013-10-01 02:25:00,
2013-09-30 19:28:00,45.4,36.6,29.97,SW,222,10.0,13.0,71,0.00,,---,0.08,VWS V14.01,2013-10-01 02:28:00,
2013-09-30 19:29:00,45.4,36.2,29.97,SSW,212,2.0,13.0,70,0.00,,---,0.08,VWS V14.01,2013-10-01 02:29:00,
2013-09-30 19:31:00,45.4,36.6,29.97,SSW,212,4.0,13.0,71,0.00,,---,0.08,VWS V14.01,2013-10-01 02:31:00,
2013-09-30 19:33:00,45.4,36.6,29.97,SSW,194,6.0,13.0,71,0.00,,---,0.08,VWS V14.01,2013-10-01 02:33:00,
2013-09-30 19:36:00,45.3,36.5,29.97,SSW,194,3.0,13.0,71,0.00,,---,0.08,VWS V14.01,2013-10-01 02:36:00,
2013-09-30 19:37:00,45.3,36.5,29.97,SSW,194,2.0,13.0,71,0.00,,---,0.08,VWS V14.01,2013-10-01 02:37:00,
2013-09-30 19:38:00,45.3,36.5,29.97,SW,235,7.0,13.0,71,0.00,,---,0.08,VWS V14.01,2013-10-01 02:38:00,
2013-09-30 19:41:00,45.3,36.5,29.97,SSW,195,5.0,13.0,71,0.00,,---,0.08,VWS V14.01,2013-10-01 02:41:00,
2013-09-30 19:42:00,45.3,36.5,29.97,SSW,194,2.0,5.0,71,0.00,,---,0.08,VWS V14.01,2013-10-01 02:42:00,
2013-09-30 19:44:00,45.3,36.5,29.97,SW,223,5.0,7.0,71,0.00,,---,0.08,VWS V14.01,2013-10-01 02:44:00,
2013-09-30 19:45:00,45.3,36.5,29.98,SW,220,8.0,12.0,71,0.00,,---,0.08,VWS V14.01,2013-10-01 02:45:00,
2013-09-30 19:46:00,45.3,36.5,29.97,SSW,198,7.0,12.0,71,0.00,,---,0.08,VWS V14.01,2013-10-01 02:46:00,
2013-09-30 19:47:00,45.3,36.5,29.97,SSW,203,4.0,12.0,71,0.00,,---,0.08,VWS V14.01,2013-10-01 02:47:00,
2013-09-30 19:48:00,45.3,36.5,29.97,SW,236,5.0,12.0,71,0.00,,---,0.08,VWS V14.01,2013-10-01 02:48:00,
2013-09-30 19:50:00,45.2,36.4,29.98,SSW,192,7.0,12.0,71,0.00,,---,0.08,VWS V14.01,2013-10-01 02:50:00,
2013-09-30 19:51:00,45.2,36.4,29.98,West,272,9.0,12.0,71,0.00,,---,0.08,VWS V14.01,2013-10-01 02:51:00,
2013-09-30 19:52:00,45.2,36.4,29.98,SSW,199,8.0,9.0,71,0.00,,---,0.08,VWS V14.01,2013-10-01 02:52:00,
2013-09-30 19:53:00,45.2,36.4,29.98,SSW,205,14.0,15.0,71,0.00,,---,0.08,VWS V14.01,2013-10-01 02:53:00,
2013-09-30 19:55:00,45.2,36.4,29.98,WSW,242,3.0,16.0,71,0.00,,---,0.08,VWS V14.01,2013-10-01 02:55:00,
2013-09-30 19:56:00,45.2,36.4,29.98,SSW,196,5.0,16.0,71,0.00,,---,0.08,VWS V14.01,2013-10-01 02:56:00,
2013-09-30 19:57:00,45.2,36.4,29.97,SW,222,9.0,16.0,71,0.00,,---,0.08,VWS V14.01,2013-10-01 02:57:00,
2013-09-30 19:58:00,45.2,36.4,29.98,SW,219,7.0,16.0,71,0.00,,---,0.08,VWS V14.01,2013-10-01 02:58:00,
2013-09-30 19:59:00,45.2,36.4,29.98,SSW,207,5.0,16.0,71,0.00,,---,0.08,VWS V14.01,2013-10-01 02:59:00,
2013-09-30 20:03:00,45.1,36.3,29.98,SSW,198,6.0,10.0,71,0.00,,---,0.08,VWS V14.01,2013-10-01 03:03:00,
2013-09-30 20:04:00,45.1,36.3,29.98,South,172,7.0,10.0,71,0.00,,---,0.08,VWS V14.01,2013-10-01 03:04:00,
2013-09-30 20:05:00,45.0,36.2,29.98,SW,218,14.0,15.0,71,0.00,,---,0.08,VWS V14.01,2013-10-01 03:05:00,
2013-09-30 20:08:00,45.0,36.2,29.98,SSW,213,6.0,15.0,71,0.00,,---,0.08,VWS V14.01,2013-10-01 03:08:00,
2013-09-30 20:09:00,45.0,36.2,29.98,SSW,203,6.0,15.0,71,0.00,,---,0.08,VWS V14.01,2013-10-01 03:09:00,
2013-09-30 20:10:00,44.9,36.1,29.98,SSW,213,7.0,15.0,71,0.00,,---,0.08,VWS V14.01,2013-10-01 03:10:00,
2013-09-30 20:12:00,44.9,36.1,29.98,SW,223,8.0,15.0,71,0.00,,---,0.08,VWS V14.01,2013-10-01 03:12:00,
2013-09-30 20:13:00,44.8,36.0,29.98,SSW,198,7.0,9.0,71,0.00,,---,0.08,VWS V14.01,2013-10-01 03:13:00,
2013-09-30 20:15:00,44.7,35.9,29.98,South,189,4.0,9.0,71,0.00,,---,0.08,VWS V14.01,2013-10-01 03:15:00,
2013-09-30 20:18:00,44.6,35.8,29.98,SSW,196,10.0,16.0,71,0.00,,---,0.08,VWS V14.01,2013-10-01 03:18:00,
2013-09-30 20:19:00,44.6,35.8,29.98,South,191,6.0,16.0,71,0.00,,---,0.08,VWS V14.01,2013-10-01 03:19:00,
2013-09-30 20:20:00,44.6,36.2,29.97,South,172,7.0,16.0,72,0.00,,---,0.08,VWS V14.01,2013-10-01 03:20:00,
2013-09-30 20:22:00,44.4,36.0,29.98,South,181,5.0,9.0,72,0.00,,---,0.08,VWS V14.01,2013-10-01 03:22:00,
2013-09-30 20:24:00,44.4,36.0,29.98,SSW,197,9.0,11.0,72,0.00,,---,0.08,VWS V14.01,2013-10-01 03:24:00,
2013-09-30 20:25:00,44.3,35.9,29.98,SSE,167,9.0,11.0,72,0.00,,---,0.08,VWS V14.01,2013-10-01 03:25:00,
2013-09-30 20:27:00,44.3,35.9,29.98,SSW,196,8.0,11.0,72,0.00,,---,0.08,VWS V14.01,2013-10-01 03:27:00,
2013-09-30 20:28:00,44.3,35.9,29.98,SSW,207,4.0,11.0,72,0.00,,---,0.08,VWS V14.01,2013-10-01 03:28:00,
2013-09-30 20:29:00,44.2,35.8,29.98,South,171,6.0,11.0,72,0.00,,---,0.08,VWS V14.01,2013-10-01 03:29:00,
2013-09-30 20:33:00,44.2,35.8,29.98,SSW,200,6.0,9.0,72,0.00,,---,0.08,VWS V14.01,2013-10-01 03:33:00,
2013-09-30 20:34:00,44.2,35.8,29.98,South,177,9.0,9.0,72,0.00,,---,0.08,VWS V14.01,2013-10-01 03:34:00,
2013-09-30 20:36:00,44.1,35.7,29.98,SSW,195,6.0,9.0,72,0.00,,---,0.08,VWS V14.01,2013-10-01 03:36:00,
2013-09-30 20:37:00,44.1,35.7,29.98,South,185,3.0,9.0,72,0.00,,---,0.08,VWS V14.01,2013-10-01 03:37:00,
2013-09-30 20:38:00,44.0,35.6,29.98,South,180,5.0,9.0,72,0.00,,---,0.08,VWS V14.01,2013-10-01 03:38:00,
2013-09-30 20:39:00,44.0,35.9,29.98,South,170,6.0,9.0,73,0.00,,---,0.08,VWS V14.01,2013-10-01 03:39:00,
2013-09-30 20:41:00,43.9,35.8,29.98,South,188,3.0,14.0,73,0.00,,---,0.08,VWS V14.01,2013-10-01 03:41:00,
2013-09-30 20:42:00,43.9,35.8,29.98,South,177,4.0,14.0,73,0.00,,---,0.08,VWS V14.01,2013-10-01 03:42:00,
2013-09-30 20:44:00,43.8,35.7,29.98,SSW,193,6.0,8.0,73,0.00,,---,0.08,VWS V14.01,2013-10-01 03:44:00,
2013-09-30 20:45:00,43.8,35.7,29.98,South,172,7.0,11.0,73,0.00,,---,0.08,VWS V14.01,2013-10-01 03:45:00,
2013-09-30 20:46:00,43.8,35.7,29.98,South,175,6.0,11.0,73,0.00,,---,0.08,VWS V14.01,2013-10-01 03:46:00,
2013-09-30 20:47:00,43.8,35.7,29.98,SSW,194,7.0,11.0,73,0.00,,---,0.08,VWS V14.01,2013-10-01 03:47:00,
2013-09-30 20:49:00,43.8,36.1,29.98,SSW,207,7.0,11.0,74,0.00,,---,0.08,VWS V14.01,2013-10-01 03:49:00,
2013-09-30 20:51:00,43.8,36.1,29.98,South,188,7.0,11.0,74,0.00,,---,0.08,VWS V14.01,2013-10-01 03:51:00,
2013-09-30 20:52:00,43.8,36.1,29.98,SSW,194,4.0,11.0,74,0.00,,---,0.08,VWS V14.01,2013-10-01 03:52:00,
2013-09-30 20:54:00,43.8,36.1,29.98,SSW,200,5.0,7.0,74,0.00,,---,0.08,VWS V14.01,2013-10-01 03:54:00,
2013-09-30 20:55:00,43.8,36.1,29.98,SSW,194,6.0,10.0,74,0.00,,---,0.08,VWS V14.01,2013-10-01 03:55:00,
2013-09-30 20:56:00,43.8,36.1,29.98,South,189,9.0,10.0,74,0.00,,---,0.08,VWS V14.01,2013-10-01 03:56:00,
2013-09-30 20:57:00,43.8,36.1,29.98,South,181,5.0,11.0,74,0.00,,---,0.08,VWS V14.01,2013-10-01 03:57:00,
2013-09-30 20:58:00,43.8,36.1,29.98,South,190,8.0,11.0,74,0.00,,---,0.08,VWS V14.01,2013-10-01 03:58:00,
2013-09-30 21:00:00,43.8,36.4,29.98,South,173,10.0,11.0,75,0.00,,---,0.08,VWS V14.01,2013-10-01 04:00:00,
2013-09-30 21:01:00,43.8,36.4,29.98,SSW,194,10.0,11.0,75,0.00,,---,0.08,VWS V14.01,2013-10-01 04:01:00,
2013-09-30 21:02:00,43.8,36.4,29.98,SSW,197,7.0,9.0,75,0.00,,---,0.08,VWS V14.01,2013-10-01 04:02:00,
2013-09-30 21:04:00,43.8,36.4,29.98,SW,231,6.0,9.0,75,0.00,,---,0.08,VWS V14.01,2013-10-01 04:04:00,
2013-09-30 21:07:00,43.6,36.2,29.99,SSW,206,8.0,9.0,75,0.00,,---,0.08,VWS V14.01,2013-10-01 04:07:00,
2013-09-30 21:08:00,43.6,36.5,29.99,SSW,207,6.0,9.0,76,0.00,,---,0.08,VWS V14.01,2013-10-01 04:08:00,
2013-09-30 21:11:00,43.6,36.5,29.99,SW,217,8.0,9.0,76,0.00,,---,0.08,VWS V14.01,2013-10-01 04:11:00,
2013-09-30 21:12:00,43.5,36.5,29.99,SW,223,6.0,9.0,76,0.00,,---,0.08,VWS V14.01,2013-10-01 04:12:00,
2013-09-30 21:13:00,43.5,36.5,29.99,SW,219,10.0,12.0,76,0.00,,---,0.08,VWS V14.01,2013-10-01 04:13:00,
2013-09-30 21:14:00,43.4,36.3,29.99,SW,226,10.0,12.0,76,0.00,,---,0.08,VWS V14.01,2013-10-01 04:14:00,
2013-09-30 21:16:00,43.4,36.3,29.99,SSW,210,6.0,12.0,76,0.00,,---,0.08,VWS V14.01,2013-10-01 04:16:00,
2013-09-30 21:17:00,43.4,36.3,29.99,SW,217,12.0,12.0,76,0.00,,---,0.08,VWS V14.01,2013-10-01 04:17:00,
2013-09-30 21:19:00,43.4,36.3,29.99,SSW,199,12.0,14.0,76,0.00,,---,0.08,VWS V14.01,2013-10-01 04:19:00,
2013-09-30 21:20:00,43.4,36.3,29.99,SW,222,10.0,14.0,76,0.00,,---,0.08,VWS V14.01,2013-10-01 04:20:00,
2013-09-30 21:22:00,43.3,36.6,29.99,WSW,249,5.0,14.0,77,0.00,,---,0.08,VWS V14.01,2013-10-01 04:22:00,
2013-09-30 21:24:00,43.3,36.6,29.99,SW,233,7.0,13.0,77,0.00,,---,0.08,VWS V14.01,2013-10-01 04:24:00,
2013-09-30 21:27:00,43.2,36.5,29.99,SSW,202,11.0,13.0,77,0.00,,---,0.08,VWS V14.01,2013-10-01 04:27:00,
2013-09-30 21:28:00,43.2,36.5,29.99,SW,219,9.0,13.0,77,0.00,,---,0.08,VWS V14.01,2013-10-01 04:28:00,
2013-09-30 21:30:00,43.2,36.5,29.99,SSW,209,8.0,13.0,77,0.00,,---,0.08,VWS V14.01,2013-10-01 04:30:00,
2013-09-30 21:33:00,43.2,36.5,29.99,SSW,211,9.0,9.0,77,0.00,,---,0.08,VWS V14.01,2013-10-01 04:33:00,
2013-09-30 21:35:00,43.1,36.4,29.99,SW,215,14.0,17.0,77,0.00,,---,0.08,VWS V14.01,2013-10-01 04:35:00,
2013-09-30 21:36:00,43.1,36.4,29.99,SSW,208,8.0,17.0,77,0.00,,---,0.08,VWS V14.01,2013-10-01 04:36:00,
2013-09-30 21:39:00,43.1,36.4,29.99,SSW,212,12.0,17.0,77,0.00,,---,0.08,VWS V14.01,2013-10-01 04:39:00,
2013-09-30 21:41:00,43.2,36.5,29.99,SW,230,11.0,17.0,77,0.00,,---,0.08,VWS V14.01,2013-10-01 04:41:00,
2013-09-30 21:42:00,43.2,36.5,29.99,SW,227,9.0,17.0,77,0.00,,---,0.08,VWS V14.01,2013-10-01 04:42:00,
2013-09-30 21:44:00,43.2,36.5,29.99,SW,222,10.0,13.0,77,0.00,,---,0.08,VWS V14.01,2013-10-01 04:44:00,
2013-09-30 21:46:00,43.2,36.5,29.99,SW,232,8.0,13.0,77,0.00,,---,0.08,VWS V14.01,2013-10-01 04:46:00,
2013-09-30 21:50:00,43.1,36.4,29.99,SW,219,6.0,13.0,77,0.00,,---,0.08,VWS V14.01,2013-10-01 04:50:00,
2013-09-30 21:52:00,43.0,36.3,29.99,SW,228,13.0,14.0,77,0.00,,---,0.08,VWS V14.01,2013-10-01 04:52:00,
2013-09-30 21:57:00,42.9,36.2,29.99,SW,225,9.0,12.0,77,0.00,,---,0.08,VWS V14.01,2013-10-01 04:57:00,
2013-09-30 21:58:00,42.8,36.4,29.99,SW,229,7.0,12.0,78,0.00,,---,0.08,VWS V14.01,2013-10-01 04:58:00,
2013-09-30 22:02:00,42.6,35.9,30.00,WSW,242,4.0,12.0,77,0.00,,---,0.08,VWS V14.01,2013-10-01 05:02:00,
2013-09-30 22:03:00,42.5,36.1,30.00,WSW,252,5.0,7.0,78,0.00,,---,0.08,VWS V14.01,2013-10-01 05:03:00,
2013-09-30 22:07:00,42.4,36.0,30.00,WSW,250,3.0,9.0,78,0.00,,---,0.08,VWS V14.01,2013-10-01 05:07:00,
2013-09-30 22:08:00,42.4,36.0,30.00,WSW,238,5.0,9.0,78,0.00,,---,0.08,VWS V14.01,2013-10-01 05:08:00,
2013-09-30 22:09:00,42.4,36.0,30.00,SW,223,8.0,9.0,78,0.00,,---,0.08,VWS V14.01,2013-10-01 05:09:00,
2013-09-30 22:12:00,42.3,35.9,30.00,SW,221,4.0,4.0,78,0.00,,---,0.08,VWS V14.01,2013-10-01 05:12:00,
2013-09-30 22:14:00,42.3,35.9,30.00,SW,234,5.0,6.0,78,0.00,,---,0.08,VWS V14.01,2013-10-01 05:14:00,
2013-09-30 22:15:00,42.3,35.9,30.00,SW,221,4.0,7.0,78,0.00,,---,0.08,VWS V14.01,2013-10-01 05:15:00,
2013-09-30 22:16:00,42.3,35.9,30.00,SW,221,3.0,7.0,78,0.00,,---,0.08,VWS V14.01,2013-10-01 05:16:00,
2013-09-30 22:18:00,42.2,35.8,30.00,SW,221,2.0,7.0,78,0.00,,---,0.08,VWS V14.01,2013-10-01 05:18:00,
2013-09-30 22:20:00,42.2,35.8,30.00,SW,221,2.0,7.0,78,0.00,,---,0.08,VWS V14.01,2013-10-01 05:20:00,
2013-09-30 22:21:00,42.1,35.8,30.00,SW,221,1.0,7.0,78,0.00,,---,0.08,VWS V14.01,2013-10-01 05:21:00,
2013-09-30 22:22:00,42.1,35.8,30.00,SW,221,3.0,3.0,78,0.00,,---,0.08,VWS V14.01,2013-10-01 05:22:00,
2013-09-30 22:23:00,42.0,35.7,30.00,SW,221,3.0,4.0,78,0.00,,---,0.08,VWS V14.01,2013-10-01 05:23:00,
2013-09-30 22:25:00,42.0,35.7,30.00,SW,221,3.0,4.0,78,0.00,,---,0.08,VWS V14.01,2013-10-01 05:25:00,
2013-09-30 22:27:00,42.0,35.3,30.00,SW,221,3.0,5.0,77,0.00,,---,0.08,VWS V14.01,2013-10-01 05:27:00,
2013-09-30 22:28:00,42.1,35.1,30.00,SW,221,4.0,5.0,76,0.00,,---,0.08,VWS V14.01,2013-10-01 05:28:00,
2013-09-30 22:31:00,42.3,35.0,30.00,West,277,2.0,6.0,75,0.00,,---,0.08,VWS V14.01,2013-10-01 05:31:00,
2013-09-30 22:33:00,42.5,35.2,30.00,SSW,209,5.0,6.0,75,0.00,,---,0.08,VWS V14.01,2013-10-01 05:33:00,
2013-09-30 22:34:00,42.5,35.2,30.00,SSW,211,3.0,6.0,75,0.00,,---,0.08,VWS V14.01,2013-10-01 05:34:00,
2013-09-30 22:35:00,42.6,34.9,30.00,SSW,208,3.0,6.0,74,0.00,,---,0.08,VWS V14.01,2013-10-01 05:35:00,
2013-09-30 22:36:00,42.6,35.2,30.00,SSW,207,4.0,6.0,75,0.00,,---,0.08,VWS V14.01,2013-10-01 05:36:00,
2013-09-30 22:39:00,42.5,35.5,30.00,South,185,8.0,9.0,76,0.00,,---,0.08,VWS V14.01,2013-10-01 05:39:00,
2013-09-30 22:42:00,42.5,35.5,30.00,South,185,2.0,2.0,76,0.00,,---,0.08,VWS V14.01,2013-10-01 05:42:00,
2013-09-30 22:43:00,42.5,35.5,30.00,SSW,213,6.0,6.0,76,0.00,,---,0.08,VWS V14.01,2013-10-01 05:43:00,
2013-09-30 22:44:00,42.4,35.4,30.00,SSW,209,4.0,6.0,76,0.00,,---,0.08,VWS V14.01,2013-10-01 05:44:00,
2013-09-30 22:45:00,42.4,35.4,30.00,SW,227,4.0,6.0,76,0.00,,---,0.08,VWS V14.01,2013-10-01 05:45:00,
2013-09-30 22:48:00,42.3,35.3,30.00,SSW,199,5.0,7.0,76,0.00,,---,0.08,VWS V14.01,2013-10-01 05:48:00,
2013-09-30 22:49:00,42.2,35.2,30.00,SSW,199,5.0,7.0,76,0.00,,---,0.08,VWS V14.01,2013-10-01 05:49:00,
2013-09-30 22:50:00,42.2,35.2,30.00,SW,217,5.0,7.0,76,0.00,,---,0.08,VWS V14.01,2013-10-01 05:50:00,
2013-09-30 22:51:00,42.2,35.2,30.01,SSW,213,7.0,7.0,76,0.00,,---,0.08,VWS V14.01,2013-10-01 05:51:00,
2013-09-30 22:54:00,42.2,35.2,30.01,SW,220,4.0,7.0,76,0.00,,---,0.08,VWS V14.01,2013-10-01 05:54:00,
2013-09-30 22:55:00,42.1,35.1,30.01,SSW,212,3.0,7.0,76,0.00,,---,0.08,VWS V14.01,2013-10-01 05:55:00,
2013-09-30 22:56:00,42.1,35.1,30.01,SSW,212,4.0,7.0,76,0.00,,---,0.08,VWS V14.01,2013-10-01 05:56:00,
2013-09-30 22:57:00,42.0,35.3,30.01,SSW,212,4.0,7.0,77,0.00,,---,0.08,VWS V14.01,2013-10-01 05:57:00,
2013-09-30 22:59:00,41.9,35.2,30.00,SSW,207,6.0,10.0,77,0.00,,---,0.08,VWS V14.01,2013-10-01 05:59:00,
2013-09-30 23:01:00,41.9,35.2,30.00,SSW,211,7.0,10.0,77,0.00,,---,0.08,VWS V14.01,2013-10-01 06:01:00,
2013-09-30 23:02:00,42.0,35.3,30.00,SSW,200,7.0,7.0,77,0.00,,---,0.08,VWS V14.01,2013-10-01 06:02:00,
2013-09-30 23:05:00,42.0,35.3,30.00,SSW,196,5.0,8.0,77,0.00,,---,0.08,VWS V14.01,2013-10-01 06:05:00,
2013-09-30 23:06:00,41.9,35.2,30.00,SSW,195,8.0,9.0,77,0.00,,---,0.08,VWS V14.01,2013-10-01 06:06:00,
2013-09-30 23:07:00,41.9,35.2,30.01,SSW,209,10.0,10.0,77,0.00,,---,0.08,VWS V14.01,2013-10-01 06:07:00,
2013-09-30 23:08:00,41.9,35.2,30.01,SW,215,7.0,10.0,77,0.00,,---,0.08,VWS V14.01,2013-10-01 06:08:00,
2013-09-30 23:10:00,41.8,35.1,30.01,SW,217,8.0,10.0,77,0.00,,---,0.08,VWS V14.01,2013-10-01 06:10:00,
2013-09-30 23:12:00,41.7,35.0,30.01,SW,224,10.0,10.0,77,0.00,,---,0.08,VWS V14.01,2013-10-01 06:12:00,
2013-09-30 23:14:00,41.6,35.3,30.01,SW,232,10.0,12.0,78,0.00,,---,0.08,VWS V14.01,2013-10-01 06:14:00,
2013-09-30 23:15:00,41.7,35.4,30.01,SW,216,7.0,12.0,78,0.00,,---,0.08,VWS V14.01,2013-10-01 06:15:00,
2013-09-30 23:16:00,41.6,35.3,30.01,SW,220,10.0,12.0,78,0.00,,---,0.08,VWS V14.01,2013-10-01 06:16:00,
2013-09-30 23:20:00,41.6,34.9,30.01,SW,228,7.0,12.0,77,0.00,,---,0.08,VWS V14.01,2013-10-01 06:20:00,
2013-09-30 23:22:00,41.6,34.9,30.01,SW,221,9.0,12.0,77,0.00,,---,0.08,VWS V14.01,2013-10-01 06:22:00,
2013-09-30 23:23:00,41.6,34.9,30.01,WSW,252,7.0,11.0,77,0.00,,---,0.08,VWS V14.01,2013-10-01 06:23:00,
2013-09-30 23:25:00,41.6,34.9,30.00,SW,216,11.0,11.0,77,0.00,,---,0.08,VWS V14.01,2013-10-01 06:25:00,
2013-09-30 23:28:00,41.6,34.9,30.01,SW,227,8.0,11.0,77,0.00,,---,0.08,VWS V14.01,2013-10-01 06:28:00,
2013-09-30 23:29:00,41.6,34.9,30.01,SSW,205,6.0,11.0,77,0.00,,---,0.08,VWS V14.01,2013-10-01 06:29:00,
2013-09-30 23:31:00,41.5,34.8,30.00,SSW,198,9.0,11.0,77,0.00,,---,0.08,VWS V14.01,2013-10-01 06:31:00,
2013-09-30 23:35:00,41.4,35.1,30.01,SSW,207,7.0,10.0,78,0.00,,---,0.08,VWS V14.01,2013-10-01 06:35:00,
2013-09-30 23:36:00,41.4,34.7,30.00,South,186,8.0,11.0,77,0.00,,---,0.08,VWS V14.01,2013-10-01 06:36:00,
2013-09-30 23:37:00,41.4,34.7,30.00,SSW,212,9.0,11.0,77,0.00,,---,0.08,VWS V14.01,2013-10-01 06:37:00,
2013-09-30 23:38:00,41.4,34.7,30.00,SSW,206,9.0,11.0,77,0.00,,---,0.08,VWS V14.01,2013-10-01 06:38:00,
2013-09-30 23:41:00,41.4,34.7,30.01,SSW,205,9.0,11.0,77,0.00,,---,0.08,VWS V14.01,2013-10-01 06:41:00,
2013-09-30 23:43:00,41.4,34.7,30.00,SW,225,4.0,10.0,77,0.00,,---,0.08,VWS V14.01,2013-10-01 06:43:00,
2013-09-30 23:44:00,41.4,34.7,30.00,WSW,252,9.0,10.0,77,0.00,,---,0.08,VWS V14.01,2013-10-01 06:44:00,
2013-09-30 23:46:00,41.4,34.7,30.00,SW,231,7.0,10.0,77,0.00,,---,0.08,VWS V14.01,2013-10-01 06:46:00,
2013-09-30 23:47:00,41.4,34.7,30.00,SSW,196,6.0,10.0,77,0.00,,---,0.08,VWS V14.01,2013-10-01 06:47:00,
2013-09-30 23:49:00,41.5,34.8,30.00,SW,221,9.0,16.0,77,0.00,,---,0.08,VWS V14.01,2013-10-01 06:49:00,
2013-09-30 23:51:00,41.6,34.9,30.00,SSW,200,6.0,16.0,77,0.00,,---,0.08,VWS V14.01,2013-10-01 06:51:00,
2013-09-30 23:54:00,41.7,34.4,30.00,SSW,205,9.0,12.0,75,0.00,,---,0.08,VWS V14.01,2013-10-01 06:54:00,
2013-09-30 23:56:00,41.8,35.1,30.00,SSW,196,5.0,12.0,77,0.00,,---,0.08,VWS V14.01,2013-10-01 06:56:00,
2013-09-30 23:57:00,41.8,35.1,30.00,SSW,208,4.0,12.0,77,0.00,,---,0.08,VWS V14.01,2013-10-01 06:57:00,
2013-09-30 23:58:00,41.8,35.1,30.00,SSW,198,7.0,12.0,77,0.00,,---,0.08,VWS V14.01,2013-10-01 06:58:00,